Time,TemperatureF,DewpointF,PressureIn,WindDirection,WindDirectionDegrees,WindSpeedMPH,WindSpeedGustMPH,Humidity,HourlyPrecipIn,Conditions,Clouds,dailyrainin,SoftwareType,DateUTC
2013-01-17 00:03:00,21.6,9.8,30.16,NNW,335,3.0,11.0,60,0.00,,,0.00,Wunderground v.1.15,2013-01-17 06:03:00,
2013-01-17 00:06:00,21.4,10.4,30.17,NW,321,4.0,4.0,62,0.00,,,0.00,Wunderground v.1.15,2013-01-17 06:06:00,
2013-01-17 00:07:00,21.3,10.0,30.16,North,349,2.0,-999.0,61,-99.99,,,0.00,weatherlink.com 1.10,2013-01-17 06:07:00,
2013-01-17 00:09:00,21.2,9.8,30.16,North,360,4.0,4.0,61,0.00,,,0.00,Wunderground v.1.15,2013-01-17 06:09:00,
2013-01-17 00:10:00,21.2,9.8,30.16,North,360,4.0,4.0,61,0.00,,,0.00,Wunderground v.1.15,2013-01-17 06:10:00,
2013-01-17 00:13:00,21.0,10.0,30.17,NNW,346,3.0,4.0,62,0.00,,,0.00,Wunderground v.1.15,2013-01-17 06:13:00,
2013-01-17 00:17:00,20.9,9.9,30.17,North,5,3.0,3.0,62,0.00,,,0.00,Wunderground v.1.15,2013-01-17 06:17:00,
2013-01-17 00:19:00,20.8,10.5,30.17,NNW,338,2.0,3.0,64,0.00,,,0.00,Wunderground v.1.15,2013-01-17 06:19:00,
2013-01-17 00:21:00,20.7,10.1,30.17,NW,310,2.0,3.0,63,0.00,,,0.00,Wunderground v.1.15,2013-01-17 06:21:00,
2013-01-17 00:24:00,20.7,11.5,30.17,NNW,340,2.0,5.0,67,0.00,,,0.00,Wunderground v.1.15,2013-01-17 06:24:00,
2013-01-17 00:27:00,20.5,9.5,30.17,North,349,2.0,11.0,62,0.00,,,0.00,Wunderground v.1.15,2013-01-17 06:27:00,
2013-01-17 00:31:00,20.4,10.5,30.17,NW,319,2.0,11.0,65,0.00,,,0.00,Wunderground v.1.15,2013-01-17 06:31:00,
2013-01-17 00:32:00,20.4,10.8,30.17,NW,319,1.0,11.0,66,0.00,,,0.00,Wunderground v.1.15,2013-01-17 06:32:00,
2013-01-17 00:34:00,20.4,12.2,30.18,NW,322,1.0,11.0,70,0.00,,,0.00,Wunderground v.1.15,2013-01-17 06:34:00,
2013-01-17 00:36:00,20.2,9.6,30.18,North,355,2.0,2.0,63,0.00,,,0.00,Wunderground v.1.15,2013-01-17 06:36:00,
2013-01-17 00:39:00,20.0,9.1,30.18,NNW,348,2.0,11.0,62,0.00,,,0.00,Wunderground v.1.15,2013-01-17 06:39:00,
2013-01-17 00:42:00,19.8,9.2,30.17,NW,317,3.0,11.0,63,0.00,,,0.00,Wunderground v.1.15,2013-01-17 06:42:00,
2013-01-17 00:45:00,19.7,9.5,30.17,NNE,21,3.0,11.0,64,0.00,,,0.00,Wunderground v.1.15,2013-01-17 06:45:00,
2013-01-17 00:46:00,19.7,9.1,30.17,NE,39,3.0,11.0,63,0.00,,,0.00,Wunderground v.1.15,2013-01-17 06:46:00,
2013-01-17 00:49:00,19.5,9.3,30.17,North,5,3.0,11.0,64,0.00,,,0.00,Wunderground v.1.15,2013-01-17 06:49:00,
2013-01-17 00:51:00,19.4,8.8,30.17,NW,308,3.0,11.0,63,0.00,,,0.00,Wunderground v.1.15,2013-01-17 06:51:00,
2013-01-17 00:52:00,19.3,9.0,30.18,North,9,4.0,-999.0,63,-99.99,,,0.00,weatherlink.com 1.10,2013-01-17 06:52:00,
2013-01-17 00:57:00,19.2,8.7,30.18,NW,324,3.0,3.0,63,0.00,,,0.00,Wunderground v.1.15,2013-01-17 06:57:00,
2013-01-17 00:59:00,19.1,8.2,30.18,NW,321,3.0,3.0,62,0.00,,,0.00,Wunderground v.1.15,2013-01-17 06:59:00,
2013-01-17 01:00:00,19.1,8.6,30.18,North,355,3.0,3.0,63,0.00,,,0.00,Wunderground v.1.15,2013-01-17 07:00:00,
2013-01-17 01:02:00,19.0,9.2,30.18,NNW,344,3.0,5.0,65,0.00,,,0.00,Wunderground v.1.15,2013-01-17 07:02:00,
2013-01-17 01:03:00,19.0,8.8,30.18,NW,319,3.0,5.0,64,0.00,,,0.00,Wunderground v.1.15,2013-01-17 07:03:00,
2013-01-17 01:06:00,18.9,8.7,30.18,NNW,327,3.0,5.0,64,0.00,,,0.00,Wunderground v.1.15,2013-01-17 07:06:00,
2013-01-17 01:07:00,18.9,8.0,30.18,West,281,2.0,-999.0,63,-99.99,,,0.00,weatherlink.com 1.10,2013-01-17 07:07:00,
2013-01-17 01:09:00,18.8,9.0,30.18,NW,310,3.0,5.0,65,0.00,,,0.00,Wunderground v.1.15,2013-01-17 07:09:00,
2013-01-17 01:13:00,18.6,8.4,30.18,NNW,332,3.0,5.0,64,0.00,,,0.00,Wunderground v.1.15,2013-01-17 07:13:00,
2013-01-17 01:15:00,18.5,8.3,30.18,NNW,342,3.0,5.0,64,0.00,,,0.00,Wunderground v.1.15,2013-01-17 07:15:00,
2013-01-17 01:16:00,18.5,8.3,30.18,NW,324,3.0,5.0,64,0.00,,,0.00,Wunderground v.1.15,2013-01-17 07:16:00,
2013-01-17 01:17:00,18.4,8.2,30.18,NNW,327,3.0,5.0,64,0.00,,,0.00,Wunderground v.1.15,2013-01-17 07:17:00,
2013-01-17 01:21:00,18.3,8.8,30.19,NNW,331,2.0,5.0,66,0.00,,,0.00,Wunderground v.1.15,2013-01-17 07:21:00,
2013-01-17 01:22:00,18.3,8.0,30.19,NW,321,0.0,-999.0,65,-99.99,,,0.00,weatherlink.com 1.10,2013-01-17 07:22:00,
2013-01-17 01:23:00,18.3,9.2,30.19,NNW,331,2.0,5.0,67,0.00,,,0.00,Wunderground v.1.15,2013-01-17 07:23:00,
2013-01-17 01:28:00,18.2,9.4,30.20,NW,313,2.0,10.0,68,0.00,,,0.00,Wunderground v.1.15,2013-01-17 07:28:00,
2013-01-17 01:30:00,18.2,8.7,30.20,NW,313,2.0,10.0,66,0.00,,,0.00,Wunderground v.1.15,2013-01-17 07:30:00,
2013-01-17 01:32:00,18.2,8.7,30.20,NNW,347,2.0,10.0,66,0.00,,,0.00,Wunderground v.1.15,2013-01-17 07:32:00,
2013-01-17 01:35:00,18.2,10.1,30.20,NNW,340,2.0,10.0,70,0.00,,,0.00,Wunderground v.1.15,2013-01-17 07:35:00,
2013-01-17 01:37:00,18.2,9.7,30.20,NNW,333,2.0,10.0,69,0.00,,,0.00,Wunderground v.1.15,2013-01-17 07:37:00,
2013-01-17 01:38:00,18.2,9.7,30.21,North,5,1.0,10.0,69,0.00,,,0.00,Wunderground v.1.15,2013-01-17 07:38:00,
2013-01-17 01:40:00,18.1,10.0,30.21,North,5,1.0,10.0,70,0.00,,,0.00,Wunderground v.1.15,2013-01-17 07:40:00,
2013-01-17 01:43:00,18.0,9.5,30.22,NNW,331,1.0,10.0,69,0.00,,,0.00,Wunderground v.1.15,2013-01-17 07:43:00,
2013-01-17 01:45:00,17.9,9.4,30.22,NNW,333,2.0,10.0,69,0.00,,,0.00,Wunderground v.1.15,2013-01-17 07:45:00,
2013-01-17 01:47:00,17.9,8.8,30.22,West,265,2.0,10.0,67,0.00,,,0.00,Wunderground v.1.15,2013-01-17 07:47:00,
2013-01-17 01:48:00,17.9,8.8,30.22,WSW,257,2.0,10.0,67,0.00,,,0.00,Wunderground v.1.15,2013-01-17 07:48:00,
2013-01-17 01:49:00,17.9,9.1,30.22,NNW,336,2.0,10.0,68,0.00,,,0.00,Wunderground v.1.15,2013-01-17 07:49:00,
2013-01-17 01:54:00,17.8,8.7,30.23,NNW,329,3.0,10.0,67,0.00,,,0.00,Wunderground v.1.15,2013-01-17 07:54:00,
2013-01-17 01:55:00,17.7,8.9,30.23,North,355,3.0,10.0,68,0.00,,,0.00,Wunderground v.1.15,2013-01-17 07:55:00,
2013-01-17 01:57:00,17.8,8.7,30.23,North,355,3.0,3.0,67,0.00,,,0.00,Wunderground v.1.15,2013-01-17 07:57:00,
2013-01-17 02:01:00,17.6,7.8,30.23,West,272,3.0,5.0,65,0.00,,,0.00,Wunderground v.1.15,2013-01-17 08:01:00,
2013-01-17 02:03:00,17.5,7.7,30.23,NNW,337,3.0,5.0,65,0.00,,,0.00,Wunderground v.1.15,2013-01-17 08:03:00,
2013-01-17 02:05:00,17.4,7.3,30.22,West,279,3.0,6.0,64,0.00,,,0.00,Wunderground v.1.15,2013-01-17 08:05:00,
2013-01-17 02:07:00,17.3,7.5,30.23,NNW,329,4.0,7.0,65,0.00,,,0.00,Wunderground v.1.15,2013-01-17 08:07:00,
2013-01-17 02:09:00,17.3,6.8,30.23,West,264,4.0,7.0,63,0.00,,,0.00,Wunderground v.1.15,2013-01-17 08:09:00,
2013-01-17 02:13:00,17.2,6.0,30.23,West,267,5.0,7.0,61,0.00,,,0.00,Wunderground v.1.15,2013-01-17 08:13:00,
2013-01-17 02:14:00,17.1,5.9,30.23,North,360,5.0,7.0,61,0.00,,,0.00,Wunderground v.1.15,2013-01-17 08:14:00,
2013-01-17 02:15:00,17.2,6.0,30.23,North,355,4.0,7.0,61,0.00,,,0.00,Wunderground v.1.15,2013-01-17 08:15:00,
2013-01-17 02:19:00,17.0,6.2,30.24,NNW,329,4.0,4.0,62,0.00,,,0.00,Wunderground v.1.15,2013-01-17 08:19:00,
2013-01-17 02:20:00,17.0,5.9,30.24,NNW,339,4.0,4.0,61,0.00,,,0.00,Wunderground v.1.15,2013-01-17 08:20:00,
2013-01-17 02:22:00,17.0,5.9,30.24,WSW,256,4.0,4.0,61,0.00,,,0.00,Wunderground v.1.15,2013-01-17 08:22:00,
2013-01-17 02:24:00,17.0,6.2,30.24,NW,319,3.0,4.0,62,0.00,,,0.00,Wunderground v.1.15,2013-01-17 08:24:00,
2013-01-17 02:25:00,17.0,6.2,30.24,NNW,348,4.0,7.0,62,0.00,,,0.00,Wunderground v.1.15,2013-01-17 08:25:00,
2013-01-17 02:27:00,17.0,5.9,30.24,NNW,347,4.0,5.0,61,0.00,,,0.00,Wunderground v.1.15,2013-01-17 08:27:00,
2013-01-17 02:31:00,16.8,4.9,30.24,NNW,329,4.0,9.0,59,0.00,,,0.00,Wunderground v.1.15,2013-01-17 08:31:00,
2013-01-17 02:32:00,16.8,4.9,30.24,West,265,4.0,9.0,59,0.00,,,0.00,Wunderground v.1.15,2013-01-17 08:32:00,
2013-01-17 02:35:00,16.7,4.8,30.24,NNW,342,4.0,9.0,59,0.00,,,0.00,Wunderground v.1.15,2013-01-17 08:35:00,
2013-01-17 02:36:00,16.7,5.6,30.24,NW,325,4.0,4.0,61,0.00,,,0.00,Wunderground v.1.15,2013-01-17 08:36:00,
2013-01-17 02:38:00,16.6,5.1,30.24,NNW,344,4.0,9.0,60,0.00,,,0.00,Wunderground v.1.15,2013-01-17 08:38:00,
2013-01-17 02:40:00,16.6,5.8,30.24,WNW,292,3.0,9.0,62,0.00,,,0.00,Wunderground v.1.15,2013-01-17 08:40:00,
2013-01-17 02:41:00,16.5,5.4,30.24,NW,323,3.0,9.0,61,0.00,,,0.00,Wunderground v.1.15,2013-01-17 08:41:00,
2013-01-17 02:42:00,16.5,6.1,30.25,NW,318,3.0,9.0,63,0.00,,,0.00,Wunderground v.1.15,2013-01-17 08:42:00,
2013-01-17 02:45:00,16.4,6.0,30.25,NW,304,3.0,9.0,63,0.00,,,0.00,Wunderground v.1.15,2013-01-17 08:45:00,
2013-01-17 02:46:00,16.4,6.0,30.25,NNE,15,3.0,9.0,63,0.00,,,0.00,Wunderground v.1.15,2013-01-17 08:46:00,
2013-01-17 02:49:00,16.3,5.2,30.25,NNW,333,3.0,9.0,61,0.00,,,0.00,Wunderground v.1.15,2013-01-17 08:49:00,
2013-01-17 02:50:00,16.2,5.1,30.25,NNW,336,3.0,9.0,61,0.00,,,0.00,Wunderground v.1.15,2013-01-17 08:50:00,
2013-01-17 02:52:00,16.2,5.1,30.25,NNW,345,3.0,9.0,61,0.00,,,0.00,Wunderground v.1.15,2013-01-17 08:52:00,
2013-01-17 02:54:00,16.1,5.0,30.25,NW,309,3.0,9.0,61,0.00,,,0.00,Wunderground v.1.15,2013-01-17 08:54:00,
2013-01-17 02:55:00,16.1,5.4,30.25,WNW,302,3.0,9.0,62,0.00,,,0.00,Wunderground v.1.15,2013-01-17 08:55:00,
2013-01-17 02:57:00,16.0,5.3,30.25,NW,309,3.0,6.0,62,0.00,,,0.00,Wunderground v.1.15,2013-01-17 08:57:00,
2013-01-17 03:02:00,15.8,5.8,30.25,West,281,3.0,6.0,64,0.00,,,0.00,Wunderground v.1.15,2013-01-17 09:02:00,
2013-01-17 03:04:00,15.7,4.6,30.25,NW,313,3.0,6.0,61,0.00,,,0.00,Wunderground v.1.15,2013-01-17 09:04:00,
2013-01-17 03:06:00,15.7,5.0,30.25,NNW,329,3.0,3.0,62,0.00,,,0.00,Wunderground v.1.15,2013-01-17 09:06:00,
2013-01-17 03:08:00,15.6,5.0,30.25,NNW,328,1.0,-999.0,62,-99.99,,,0.00,weatherlink.com 1.10,2013-01-17 09:08:00,
2013-01-17 03:10:00,15.7,6.3,30.25,West,281,2.0,3.0,66,0.00,,,0.00,Wunderground v.1.15,2013-01-17 09:10:00,
2013-01-17 03:11:00,15.7,6.0,30.25,NNW,344,2.0,7.0,65,0.00,,,0.00,Wunderground v.1.15,2013-01-17 09:11:00,
2013-01-17 03:14:00,15.7,6.0,30.25,NNW,334,2.0,7.0,65,0.00,,,0.00,Wunderground v.1.15,2013-01-17 09:14:00,
2013-01-17 03:18:00,15.7,5.7,30.25,West,273,2.0,5.0,64,0.00,,,0.00,Wunderground v.1.15,2013-01-17 09:18:00,
2013-01-17 03:20:00,15.8,8.1,30.25,NW,311,2.0,5.0,71,0.00,,,0.00,Wunderground v.1.15,2013-01-17 09:20:00,
2013-01-17 03:22:00,15.8,7.1,30.25,WNW,290,1.0,5.0,68,0.00,,,0.00,Wunderground v.1.15,2013-01-17 09:22:00,
2013-01-17 03:23:00,15.8,6.8,30.25,North,351,1.0,5.0,67,0.00,,,0.00,Wunderground v.1.15,2013-01-17 09:23:00,
2013-01-17 03:29:00,15.5,5.1,30.25,North,350,2.0,12.0,63,0.00,,,0.00,Wunderground v.1.15,2013-01-17 09:29:00,
2013-01-17 03:30:00,15.4,5.0,30.25,WNW,284,2.0,12.0,63,0.00,,,0.00,Wunderground v.1.15,2013-01-17 09:30:00,
2013-01-17 03:34:00,15.2,4.1,30.26,NW,308,2.0,12.0,61,0.00,,,0.00,Wunderground v.1.15,2013-01-17 09:34:00,
2013-01-17 03:35:00,15.2,4.1,30.26,NW,322,2.0,12.0,61,0.00,,,0.00,Wunderground v.1.15,2013-01-17 09:35:00,
2013-01-17 03:36:00,15.2,4.5,30.26,WNW,285,2.0,2.0,62,0.00,,,0.00,Wunderground v.1.15,2013-01-17 09:36:00,
2013-01-17 03:38:00,15.1,3.0,30.26,WNW,285,2.0,-999.0,60,-99.99,,,0.00,weatherlink.com 1.10,2013-01-17 09:38:00,
2013-01-17 03:41:00,15.0,3.2,30.26,WNW,282,2.0,12.0,59,0.00,,,0.00,Wunderground v.1.15,2013-01-17 09:41:00,
2013-01-17 03:43:00,14.9,3.1,30.26,West,276,2.0,12.0,59,0.00,,,0.00,Wunderground v.1.15,2013-01-17 09:43:00,
2013-01-17 03:47:00,14.7,3.3,30.26,West,269,2.0,12.0,60,0.00,,,0.00,Wunderground v.1.15,2013-01-17 09:47:00,
2013-01-17 03:49:00,14.6,3.2,30.27,WNW,283,2.0,12.0,60,0.00,,,0.00,Wunderground v.1.15,2013-01-17 09:49:00,
2013-01-17 03:50:00,14.6,3.2,30.27,West,279,2.0,12.0,60,0.00,,,0.00,Wunderground v.1.15,2013-01-17 09:50:00,
2013-01-17 03:52:00,14.6,3.2,30.26,West,271,2.0,12.0,60,0.00,,,0.00,Wunderground v.1.15,2013-01-17 09:52:00,
2013-01-17 03:53:00,14.6,3.2,30.27,West,271,2.0,12.0,60,0.00,,,0.00,Wunderground v.1.15,2013-01-17 09:53:00,
2013-01-17 03:54:00,14.6,3.2,30.27,West,264,2.0,12.0,60,0.00,,,0.00,Wunderground v.1.15,2013-01-17 09:54:00,
2013-01-17 03:58:00,14.5,3.8,30.27,West,273,2.0,3.0,62,0.00,,,0.00,Wunderground v.1.15,2013-01-17 09:58:00,
2013-01-17 03:59:00,14.4,3.7,30.27,West,260,2.0,3.0,62,0.00,,,0.00,Wunderground v.1.15,2013-01-17 09:59:00,
2013-01-17 04:03:00,14.3,2.9,30.27,West,271,2.0,3.0,60,0.00,,,0.00,Wunderground v.1.15,2013-01-17 10:03:00,
2013-01-17 04:04:00,14.3,3.3,30.27,West,279,2.0,5.0,61,0.00,,,0.00,Wunderground v.1.15,2013-01-17 10:04:00,
2013-01-17 04:06:00,14.3,3.3,30.27,WNW,282,3.0,3.0,61,0.00,,,0.00,Wunderground v.1.15,2013-01-17 10:06:00,
2013-01-17 04:11:00,14.1,3.5,30.27,WSW,242,2.0,3.0,62,0.00,,,0.00,Wunderground v.1.15,2013-01-17 10:11:00,
2013-01-17 04:16:00,14.0,3.0,30.27,NW,309,2.0,3.0,61,0.00,,,0.00,Wunderground v.1.15,2013-01-17 10:16:00,
2013-01-17 04:17:00,13.9,3.6,30.27,NNW,343,2.0,4.0,63,0.00,,,0.00,Wunderground v.1.15,2013-01-17 10:17:00,
2013-01-17 04:18:00,14.0,4.4,30.27,WSW,252,2.0,4.0,65,0.00,,,0.00,Wunderground v.1.15,2013-01-17 10:18:00,
2013-01-17 04:22:00,13.8,3.5,30.27,West,280,3.0,6.0,63,0.00,,,0.00,Wunderground v.1.15,2013-01-17 10:22:00,
2013-01-17 04:23:00,13.8,3.0,30.27,West,266,2.0,-999.0,62,-99.99,,,0.00,weatherlink.com 1.10,2013-01-17 10:23:00,
2013-01-17 04:24:00,13.8,3.2,30.27,WNW,290,2.0,6.0,62,0.00,,,0.00,Wunderground v.1.15,2013-01-17 10:24:00,
2013-01-17 04:25:00,13.7,3.1,30.27,West,270,2.0,6.0,62,0.00,,,0.00,Wunderground v.1.15,2013-01-17 10:25:00,
2013-01-17 04:28:00,13.7,3.4,30.28,NW,311,2.0,7.0,63,0.00,,,0.00,Wunderground v.1.15,2013-01-17 10:28:00,
2013-01-17 04:30:00,13.7,3.4,30.28,WNW,283,2.0,7.0,63,0.00,,,0.00,Wunderground v.1.15,2013-01-17 10:30:00,
2013-01-17 04:31:00,13.6,3.0,30.28,West,279,2.0,7.0,62,0.00,,,0.00,Wunderground v.1.15,2013-01-17 10:31:00,
2013-01-17 04:32:00,13.6,3.3,30.28,West,279,2.0,7.0,63,0.00,,,0.00,Wunderground v.1.15,2013-01-17 10:32:00,
2013-01-17 04:37:00,13.4,3.8,30.28,NNW,327,2.0,7.0,65,0.00,,,0.00,Wunderground v.1.15,2013-01-17 10:37:00,
2013-01-17 04:38:00,13.4,4.0,30.28,West,275,1.0,-999.0,65,-99.99,,,0.00,weatherlink.com 1.10,2013-01-17 10:38:00,
2013-01-17 04:43:00,13.3,3.4,30.28,WNW,287,2.0,7.0,64,0.00,,,0.00,Wunderground v.1.15,2013-01-17 10:43:00,
2013-01-17 04:46:00,13.2,2.9,30.28,West,280,2.0,7.0,63,0.00,,,0.00,Wunderground v.1.15,2013-01-17 10:46:00,
2013-01-17 04:49:00,13.1,2.9,30.29,WNW,285,2.0,7.0,63,0.00,,,0.00,Wunderground v.1.15,2013-01-17 10:49:00,
2013-01-17 04:50:00,13.1,3.5,30.29,West,277,2.0,7.0,65,0.00,,,0.00,Wunderground v.1.15,2013-01-17 10:50:00,
2013-01-17 04:52:00,13.1,3.2,30.29,West,267,2.0,7.0,64,0.00,,,0.00,Wunderground v.1.15,2013-01-17 10:52:00,
2013-01-17 04:54:00,13.1,2.9,30.29,West,264,2.0,7.0,63,0.00,,,0.00,Wunderground v.1.15,2013-01-17 10:54:00,
2013-01-17 04:57:00,13.1,2.9,30.29,West,277,3.0,4.0,63,0.00,,,0.00,Wunderground v.1.15,2013-01-17 10:57:00,
2013-01-17 04:58:00,13.1,2.9,30.29,WNW,302,3.0,4.0,63,0.00,,,0.00,Wunderground v.1.15,2013-01-17 10:58:00,
2013-01-17 04:59:00,13.0,3.1,30.29,WNW,295,3.0,4.0,64,0.00,,,0.00,Wunderground v.1.15,2013-01-17 10:59:00,
2013-01-17 05:01:00,13.0,3.1,30.29,West,277,3.0,4.0,64,0.00,,,0.00,Wunderground v.1.15,2013-01-17 11:01:00,
2013-01-17 05:02:00,13.0,3.4,30.29,WNW,286,2.0,4.0,65,0.00,,,0.00,Wunderground v.1.15,2013-01-17 11:02:00,
2013-01-17 05:06:00,13.1,3.5,30.29,WNW,286,2.0,2.0,65,0.00,,,0.00,Wunderground v.1.15,2013-01-17 11:06:00,
2013-01-17 05:07:00,13.0,3.1,30.29,WNW,284,2.0,3.0,64,0.00,,,0.00,Wunderground v.1.15,2013-01-17 11:07:00,
2013-01-17 05:12:00,12.8,2.9,30.30,West,279,2.0,4.0,64,0.00,,,0.00,Wunderground v.1.15,2013-01-17 11:12:00,
2013-01-17 05:14:00,12.7,2.8,30.30,West,277,3.0,6.0,64,0.00,,,0.00,Wunderground v.1.15,2013-01-17 11:14:00,
2013-01-17 05:15:00,12.7,2.8,30.30,West,276,3.0,6.0,64,0.00,,,0.00,Wunderground v.1.15,2013-01-17 11:15:00,
2013-01-17 05:18:00,12.6,2.7,30.30,West,277,3.0,5.0,64,0.00,,,0.00,Wunderground v.1.15,2013-01-17 11:18:00,
2013-01-17 05:19:00,12.6,2.7,30.30,West,273,3.0,5.0,64,0.00,,,0.00,Wunderground v.1.15,2013-01-17 11:19:00,
2013-01-17 05:20:00,12.6,2.7,30.30,West,274,3.0,5.0,64,0.00,,,0.00,Wunderground v.1.15,2013-01-17 11:20:00,
2013-01-17 05:24:00,12.5,3.0,30.30,West,278,2.0,-999.0,65,-99.99,,,0.00,weatherlink.com 1.10,2013-01-17 11:24:00,
2013-01-17 05:25:00,12.5,3.0,30.30,West,259,3.0,5.0,65,0.00,,,0.00,Wunderground v.1.15,2013-01-17 11:25:00,
2013-01-17 05:28:00,12.3,2.8,30.30,West,265,3.0,7.0,65,0.00,,,0.00,Wunderground v.1.15,2013-01-17 11:28:00,
2013-01-17 05:31:00,12.2,3.0,30.30,West,269,3.0,7.0,66,0.00,,,0.00,Wunderground v.1.15,2013-01-17 11:31:00,
2013-01-17 05:32:00,12.1,2.9,30.30,West,272,3.0,7.0,66,0.00,,,0.00,Wunderground v.1.15,2013-01-17 11:32:00,
2013-01-17 05:35:00,12.1,2.9,30.30,West,277,3.0,7.0,66,0.00,,,0.00,Wunderground v.1.15,2013-01-17 11:35:00,
2013-01-17 05:37:00,12.1,2.9,30.30,West,270,3.0,7.0,66,0.00,,,0.00,Wunderground v.1.15,2013-01-17 11:37:00,
2013-01-17 05:39:00,12.0,2.8,30.31,West,273,3.0,7.0,66,0.00,,,0.00,Wunderground v.1.15,2013-01-17 11:39:00,
2013-01-17 05:41:00,12.0,3.1,30.31,West,280,3.0,7.0,67,0.00,,,0.00,Wunderground v.1.15,2013-01-17 11:41:00,
2013-01-17 05:42:00,11.9,3.0,30.31,West,262,3.0,7.0,67,0.00,,,0.00,Wunderground v.1.15,2013-01-17 11:42:00,
2013-01-17 05:47:00,11.8,2.9,30.31,West,277,3.0,7.0,67,0.00,,,0.00,Wunderground v.1.15,2013-01-17 11:47:00,
2013-01-17 05:48:00,11.8,2.9,30.31,West,277,3.0,7.0,67,0.00,,,0.00,Wunderground v.1.15,2013-01-17 11:48:00,
2013-01-17 05:49:00,11.8,2.9,30.31,West,277,3.0,7.0,67,0.00,,,0.00,Wunderground v.1.15,2013-01-17 11:49:00,
2013-01-17 05:52:00,11.7,3.2,30.31,WSW,246,3.0,7.0,68,0.00,,,0.00,Wunderground v.1.15,2013-01-17 11:52:00,
2013-01-17 05:54:00,11.6,3.0,30.32,West,265,4.0,-999.0,68,-99.99,,,0.00,weatherlink.com 1.10,2013-01-17 11:54:00,
2013-01-17 05:55:00,11.6,3.1,30.32,West,262,3.0,7.0,68,0.00,,,0.00,Wunderground v.1.15,2013-01-17 11:55:00,
2013-01-17 05:57:00,11.6,3.1,30.32,West,271,3.0,5.0,68,0.00,,,0.00,Wunderground v.1.15,2013-01-17 11:57:00,
2013-01-17 05:58:00,11.5,3.0,30.32,West,274,3.0,5.0,68,0.00,,,0.00,Wunderground v.1.15,2013-01-17 11:58:00,
2013-01-17 06:01:00,11.6,3.1,30.32,West,274,3.0,5.0,68,0.00,,,0.00,Wunderground v.1.15,2013-01-17 12:01:00,
2013-01-17 06:04:00,11.5,3.0,30.31,West,273,3.0,5.0,68,0.00,,,0.00,Wunderground v.1.15,2013-01-17 12:04:00,
2013-01-17 06:07:00,11.4,3.2,30.32,West,273,3.0,3.0,69,0.00,,,0.00,Wunderground v.1.15,2013-01-17 12:07:00,
2013-01-17 06:08:00,11.4,3.2,30.32,West,273,3.0,4.0,69,0.00,,,0.00,Wunderground v.1.15,2013-01-17 12:08:00,
2013-01-17 06:10:00,11.4,3.0,30.32,West,275,6.0,-999.0,69,-99.99,,,0.00,weatherlink.com 1.10,2013-01-17 12:10:00,
2013-01-17 06:11:00,11.4,3.2,30.32,West,275,3.0,6.0,69,0.00,,,0.00,Wunderground v.1.15,2013-01-17 12:11:00,
2013-01-17 06:13:00,11.4,3.2,30.32,West,275,3.0,6.0,69,0.00,,,0.00,Wunderground v.1.15,2013-01-17 12:13:00,
2013-01-17 06:16:00,11.4,3.5,30.32,West,276,3.0,6.0,70,0.00,,,0.00,Wunderground v.1.15,2013-01-17 12:16:00,
2013-01-17 06:18:00,11.3,3.4,30.33,West,281,4.0,6.0,70,0.00,,,0.00,Wunderground v.1.15,2013-01-17 12:18:00,
2013-01-17 06:19:00,11.4,3.5,30.33,West,275,3.0,6.0,70,0.00,,,0.00,Wunderground v.1.15,2013-01-17 12:19:00,
2013-01-17 06:23:00,11.3,3.7,30.33,West,273,3.0,6.0,71,0.00,,,0.00,Wunderground v.1.15,2013-01-17 12:23:00,
2013-01-17 06:24:00,11.3,4.0,30.33,West,274,2.0,-999.0,71,-99.99,,,0.00,weatherlink.com 1.10,2013-01-17 12:24:00,
2013-01-17 06:29:00,11.2,3.6,30.33,West,260,3.0,7.0,71,0.00,,,0.00,Wunderground v.1.15,2013-01-17 12:29:00,
2013-01-17 06:30:00,11.2,3.6,30.33,West,265,3.0,7.0,71,0.00,,,0.00,Wunderground v.1.15,2013-01-17 12:30:00,
2013-01-17 06:32:00,11.1,3.5,30.33,West,265,3.0,7.0,71,0.00,,,0.00,Wunderground v.1.15,2013-01-17 12:32:00,
2013-01-17 06:38:00,11.0,3.4,30.34,West,273,2.0,6.0,71,0.00,,,0.00,Wunderground v.1.15,2013-01-17 12:38:00,
2013-01-17 06:40:00,10.9,4.0,30.34,SW,235,1.0,-999.0,72,-99.99,,,0.00,weatherlink.com 1.10,2013-01-17 12:40:00,
2013-01-17 06:45:00,10.8,3.8,30.34,WNW,288,2.0,6.0,73,0.00,,,0.00,Wunderground v.1.15,2013-01-17 12:45:00,
2013-01-17 06:47:00,10.7,3.7,30.34,NNW,342,2.0,6.0,73,0.00,,,0.00,Wunderground v.1.15,2013-01-17 12:47:00,
2013-01-17 06:48:00,10.7,3.7,30.34,NW,304,2.0,6.0,73,0.00,,,0.00,Wunderground v.1.15,2013-01-17 12:48:00,
2013-01-17 06:53:00,10.5,4.1,30.35,NW,304,1.0,6.0,75,0.00,,,0.00,Wunderground v.1.15,2013-01-17 12:53:00,
2013-01-17 06:54:00,10.5,4.0,30.35,WNW,302,0.0,-999.0,74,-99.99,,,0.00,weatherlink.com 1.10,2013-01-17 12:54:00,
2013-01-17 06:59:00,10.4,4.6,30.34,NW,314,1.0,3.0,77,0.00,,,0.00,Wunderground v.1.15,2013-01-17 12:59:00,
2013-01-17 07:00:00,10.4,4.6,30.34,NW,312,1.0,3.0,77,0.00,,,0.00,Wunderground v.1.15,2013-01-17 13:00:00,
2013-01-17 07:01:00,10.4,4.6,30.34,NW,312,1.0,3.0,77,0.00,,,0.00,Wunderground v.1.15,2013-01-17 13:01:00,
2013-01-17 07:04:00,10.4,4.6,30.35,NNW,333,1.0,3.0,77,0.00,,,0.00,Wunderground v.1.15,2013-01-17 13:04:00,
2013-01-17 07:07:00,10.4,4.6,30.35,North,360,1.0,3.0,77,0.00,,,0.00,Wunderground v.1.15,2013-01-17 13:07:00,
2013-01-17 07:09:00,10.4,5.0,30.35,North,360,0.0,-999.0,78,-99.99,,,0.00,weatherlink.com 1.10,2013-01-17 13:09:00,
2013-01-17 07:12:00,10.6,5.6,30.35,North,355,1.0,3.0,80,0.00,,,0.00,Wunderground v.1.15,2013-01-17 13:12:00,
2013-01-17 07:13:00,10.9,6.5,30.35,North,355,1.0,3.0,82,0.00,,,0.00,Wunderground v.1.15,2013-01-17 13:13:00,
2013-01-17 07:15:00,10.9,6.5,30.35,North,355,1.0,3.0,82,0.00,,,0.00,Wunderground v.1.15,2013-01-17 13:15:00,
2013-01-17 07:16:00,10.9,6.2,30.35,North,355,1.0,1.0,81,0.00,,,0.00,Wunderground v.1.15,2013-01-17 13:16:00,
2013-01-17 07:22:00,10.4,4.0,30.35,WNW,300,1.0,3.0,75,0.00,,,0.00,Wunderground v.1.15,2013-01-17 13:22:00,
2013-01-17 07:27:00,10.1,3.0,30.35,WNW,300,0.0,-999.0,74,-99.99,,,0.00,weatherlink.com 1.10,2013-01-17 13:27:00,
2013-01-17 07:29:00,10.1,3.5,30.35,WNW,300,1.0,7.0,74,0.00,,,0.00,Wunderground v.1.15,2013-01-17 13:29:00,
2013-01-17 07:31:00,10.0,3.9,30.35,WNW,300,1.0,7.0,76,0.00,,,0.00,Wunderground v.1.15,2013-01-17 13:31:00,
2013-01-17 07:33:00,9.9,3.3,30.35,WNW,300,1.0,7.0,74,0.00,,,0.00,Wunderground v.1.15,2013-01-17 13:33:00,
2013-01-17 07:35:00,9.9,3.3,30.35,WNW,296,0.0,7.0,74,0.00,,,0.00,Wunderground v.1.15,2013-01-17 13:35:00,
2013-01-17 07:38:00,9.9,3.6,30.35,WNW,296,0.0,7.0,75,0.00,,,0.00,Wunderground v.1.15,2013-01-17 13:38:00,
2013-01-17 07:41:00,10.1,4.3,30.36,WNW,294,0.0,7.0,77,0.00,,,0.00,Wunderground v.1.15,2013-01-17 13:41:00,
2013-01-17 07:43:00,10.3,5.1,30.36,WNW,294,0.0,7.0,79,0.00,,,0.00,Wunderground v.1.15,2013-01-17 13:43:00,
2013-01-17 07:45:00,10.3,4.5,30.36,WNW,292,0.0,7.0,77,0.00,,,0.00,Wunderground v.1.15,2013-01-17 13:45:00,
2013-01-17 07:46:00,10.3,4.2,30.36,WNW,292,0.0,7.0,76,0.00,,,0.00,Wunderground v.1.15,2013-01-17 13:46:00,
2013-01-17 07:48:00,10.3,4.2,30.36,WNW,290,1.0,7.0,76,0.00,,,0.00,Wunderground v.1.15,2013-01-17 13:48:00,
2013-01-17 07:53:00,10.5,4.4,30.36,WNW,291,1.0,7.0,76,0.00,,,0.00,Wunderground v.1.15,2013-01-17 13:53:00,
2013-01-17 07:54:00,10.5,5.0,30.36,WNW,292,1.0,-999.0,77,-99.99,,,0.00,weatherlink.com 1.10,2013-01-17 13:54:00,
2013-01-17 07:57:00,10.6,4.8,30.36,WNW,292,1.0,1.0,77,0.00,,,0.00,Wunderground v.1.15,2013-01-17 13:57:00,
2013-01-17 08:02:00,10.7,4.6,30.37,West,271,1.0,3.0,76,0.00,,,0.00,Wunderground v.1.15,2013-01-17 14:02:00,
2013-01-17 08:05:00,10.7,4.0,30.37,NNW,340,1.0,6.0,74,0.00,,,0.00,Wunderground v.1.15,2013-01-17 14:05:00,
2013-01-17 08:06:00,10.7,4.0,30.37,NW,305,1.0,1.0,74,0.00,,,0.00,Wunderground v.1.15,2013-01-17 14:06:00,
2013-01-17 08:07:00,10.7,3.4,30.37,WNW,282,2.0,2.0,72,0.00,,,0.00,Wunderground v.1.15,2013-01-17 14:07:00,
2013-01-17 08:10:00,10.8,3.2,30.37,NW,308,2.0,2.0,71,0.00,,,0.00,Wunderground v.1.15,2013-01-17 14:10:00,
2013-01-17 08:13:00,10.7,2.8,30.38,West,273,2.0,6.0,70,0.00,,,0.00,Wunderground v.1.15,2013-01-17 14:13:00,
2013-01-17 08:15:00,10.7,2.8,30.38,West,269,2.0,6.0,70,0.00,,,0.00,Wunderground v.1.15,2013-01-17 14:15:00,
2013-01-17 08:16:00,10.8,2.6,30.38,West,264,2.0,6.0,69,0.00,,,0.00,Wunderground v.1.15,2013-01-17 14:16:00,
2013-01-17 08:21:00,10.9,2.7,30.38,West,267,3.0,6.0,69,0.00,,,0.00,Wunderground v.1.15,2013-01-17 14:21:00,
2013-01-17 08:22:00,10.9,3.0,30.38,West,267,2.0,6.0,70,0.00,,,0.00,Wunderground v.1.15,2013-01-17 14:22:00,
2013-01-17 08:29:00,11.4,3.2,30.38,NW,326,2.0,4.0,69,0.00,,,0.00,Wunderground v.1.15,2013-01-17 14:29:00,
2013-01-17 08:31:00,11.5,3.3,30.38,NW,317,2.0,4.0,69,0.00,,,0.00,Wunderground v.1.15,2013-01-17 14:31:00,
2013-01-17 08:34:00,11.7,2.8,30.38,NW,315,3.0,6.0,67,0.00,,,0.00,Wunderground v.1.15,2013-01-17 14:34:00,
2013-01-17 08:35:00,11.8,2.6,30.38,NNW,327,3.0,6.0,66,0.00,,,0.00,Wunderground v.1.15,2013-01-17 14:35:00,
2013-01-17 08:38:00,11.8,2.3,30.39,NW,322,3.0,6.0,65,0.00,,,0.00,Wunderground v.1.15,2013-01-17 14:38:00,
2013-01-17 08:39:00,11.8,2.0,30.39,West,263,3.0,6.0,64,0.00,,,0.00,Wunderground v.1.15,2013-01-17 14:39:00,
2013-01-17 08:41:00,11.9,2.0,30.39,West,265,3.0,7.0,64,0.00,,,0.00,Wunderground v.1.15,2013-01-17 14:41:00,
2013-01-17 08:45:00,12.0,1.8,30.39,NNW,336,4.0,7.0,63,0.00,,,0.00,Wunderground v.1.15,2013-01-17 14:45:00,
2013-01-17 08:46:00,12.0,1.8,30.39,NW,304,4.0,4.0,63,0.00,,,0.00,Wunderground v.1.15,2013-01-17 14:46:00,
2013-01-17 08:48:00,12.2,2.3,30.39,West,274,4.0,8.0,64,0.00,,,0.00,Wunderground v.1.15,2013-01-17 14:48:00,
2013-01-17 08:49:00,12.2,2.0,30.39,NNW,330,4.0,8.0,63,0.00,,,0.00,Wunderground v.1.15,2013-01-17 14:49:00,
2013-01-17 08:52:00,12.4,2.2,30.39,NW,304,3.0,8.0,63,0.00,,,0.00,Wunderground v.1.15,2013-01-17 14:52:00,
2013-01-17 08:54:00,12.5,2.3,30.39,NW,305,4.0,8.0,63,0.00,,,0.00,Wunderground v.1.15,2013-01-17 14:54:00,
2013-01-17 08:57:00,12.5,2.6,30.39,NW,307,4.0,4.0,64,0.00,,,0.00,Wunderground v.1.15,2013-01-17 14:57:00,
2013-01-17 08:58:00,12.6,2.7,30.39,NW,325,4.0,4.0,64,0.00,,,0.00,Wunderground v.1.15,2013-01-17 14:58:00,
2013-01-17 09:03:00,12.8,1.9,30.40,WSW,248,4.0,6.0,61,0.00,,,0.00,Wunderground v.1.15,2013-01-17 15:03:00,
2013-01-17 09:04:00,12.8,2.6,30.40,WNW,284,4.0,6.0,63,0.00,,,0.00,Wunderground v.1.15,2013-01-17 15:04:00,
2013-01-17 09:06:00,12.9,2.7,30.40,NNW,348,3.0,3.0,63,0.00,,,0.00,Wunderground v.1.15,2013-01-17 15:06:00,
2013-01-17 09:07:00,12.9,2.7,30.40,WNW,296,4.0,4.0,63,0.00,,,0.00,Wunderground v.1.15,2013-01-17 15:07:00,
2013-01-17 09:10:00,13.0,2.4,30.40,West,267,4.0,6.0,62,0.00,,,0.00,Wunderground v.1.15,2013-01-17 15:10:00,
2013-01-17 09:12:00,13.0,2.1,30.40,North,355,4.0,6.0,61,0.00,,,0.00,Wunderground v.1.15,2013-01-17 15:12:00,
2013-01-17 09:13:00,13.0,1.7,30.40,NW,308,4.0,6.0,60,0.00,,,0.00,Wunderground v.1.15,2013-01-17 15:13:00,
2013-01-17 09:16:00,13.0,1.3,30.41,WNW,291,4.0,5.0,59,0.00,,,0.00,Wunderground v.1.15,2013-01-17 15:16:00,
2013-01-17 09:20:00,13.3,2.0,30.41,West,281,3.0,5.0,60,0.00,,,0.00,Wunderground v.1.15,2013-01-17 15:20:00,
2013-01-17 09:21:00,13.4,2.1,30.41,WNW,291,3.0,5.0,60,0.00,,,0.00,Wunderground v.1.15,2013-01-17 15:21:00,
2013-01-17 09:23:00,13.5,2.5,30.41,West,281,2.0,5.0,61,0.00,,,0.00,Wunderground v.1.15,2013-01-17 15:23:00,
2013-01-17 09:26:00,13.5,2.0,30.41,West,277,4.0,-999.0,59,-99.99,,,0.00,weatherlink.com 1.10,2013-01-17 15:26:00,
2013-01-17 09:28:00,13.5,1.4,30.41,West,267,3.0,10.0,58,0.00,,,0.00,Wunderground v.1.15,2013-01-17 15:28:00,
2013-01-17 09:29:00,13.6,1.9,30.41,West,273,3.0,10.0,59,0.00,,,0.00,Wunderground v.1.15,2013-01-17 15:29:00,
2013-01-17 09:30:00,13.7,2.0,30.41,West,274,3.0,10.0,59,0.00,,,0.00,Wunderground v.1.15,2013-01-17 15:30:00,
2013-01-17 09:33:00,13.7,1.3,30.41,West,270,3.0,10.0,57,0.00,,,0.00,Wunderground v.1.15,2013-01-17 15:33:00,
2013-01-17 09:34:00,13.6,1.2,30.41,West,266,3.0,10.0,57,0.00,,,0.00,Wunderground v.1.15,2013-01-17 15:34:00,
2013-01-17 09:36:00,13.5,1.1,30.41,West,267,4.0,10.0,57,0.00,,,0.00,Wunderground v.1.15,2013-01-17 15:36:00,
2013-01-17 09:37:00,13.5,0.7,30.41,West,270,4.0,10.0,56,0.00,,,0.00,Wunderground v.1.15,2013-01-17 15:37:00,
2013-01-17 09:41:00,13.7,2.0,30.41,NNW,348,8.0,-999.0,59,-99.99,,,0.00,weatherlink.com 1.10,2013-01-17 15:41:00,
2013-01-17 09:42:00,13.7,1.6,30.42,WNW,291,4.0,10.0,58,0.00,,,0.00,Wunderground v.1.15,2013-01-17 15:42:00,
2013-01-17 09:44:00,13.7,1.6,30.42,North,350,4.0,10.0,58,0.00,,,0.00,Wunderground v.1.15,2013-01-17 15:44:00,
2013-01-17 09:47:00,13.9,1.8,30.42,South,176,4.0,10.0,58,0.00,,,0.00,Wunderground v.1.15,2013-01-17 15:47:00,
2013-01-17 09:48:00,13.9,1.8,30.42,NNW,340,4.0,10.0,58,0.00,,,0.00,Wunderground v.1.15,2013-01-17 15:48:00,
2013-01-17 09:50:00,13.9,1.5,30.42,West,281,4.0,10.0,57,0.00,,,0.00,Wunderground v.1.15,2013-01-17 15:50:00,
2013-01-17 09:52:00,14.0,1.9,30.42,North,5,4.0,10.0,58,0.00,,,0.00,Wunderground v.1.15,2013-01-17 15:52:00,
2013-01-17 09:57:00,14.0,0.8,30.42,NNW,334,5.0,5.0,55,0.00,,,0.00,Wunderground v.1.15,2013-01-17 15:57:00,
2013-01-17 09:58:00,14.0,0.8,30.42,West,281,5.0,6.0,55,0.00,,,0.00,Wunderground v.1.15,2013-01-17 15:58:00,
2013-01-17 09:59:00,14.0,0.4,30.42,WNW,286,5.0,7.0,54,0.00,,,0.00,Wunderground v.1.15,2013-01-17 15:59:00,
2013-01-17 10:03:00,14.2,1.4,30.42,WSW,252,5.0,7.0,56,0.00,,,0.00,Wunderground v.1.15,2013-01-17 16:03:00,
2013-01-17 10:04:00,14.3,1.4,30.42,WNW,284,5.0,7.0,56,0.00,,,0.00,Wunderground v.1.15,2013-01-17 16:04:00,
2013-01-17 10:08:00,14.4,0.8,30.42,West,271,5.0,5.0,54,0.00,,,0.00,Wunderground v.1.15,2013-01-17 16:08:00,
2013-01-17 10:10:00,14.4,0.0,30.42,NNW,329,6.0,-999.0,53,-99.99,,,0.00,weatherlink.com 1.10,2013-01-17 16:10:00,
2013-01-17 10:12:00,14.6,1.3,30.42,NW,322,4.0,6.0,55,0.00,,,0.00,Wunderground v.1.15,2013-01-17 16:12:00,
2013-01-17 10:14:00,14.7,0.6,30.42,NW,318,4.0,10.0,53,0.00,,,0.00,Wunderground v.1.15,2013-01-17 16:14:00,
2013-01-17 10:18:00,14.6,0.1,30.42,NNW,348,4.0,5.0,52,0.00,,,0.00,Wunderground v.1.15,2013-01-17 16:18:00,
2013-01-17 10:19:00,14.7,1.0,30.42,NNW,346,4.0,8.0,54,0.00,,,0.00,Wunderground v.1.15,2013-01-17 16:19:00,
2013-01-17 10:20:00,14.8,1.1,30.42,WNW,292,5.0,8.0,54,0.00,,,0.00,Wunderground v.1.15,2013-01-17 16:20:00,
2013-01-17 10:23:00,15.0,2.1,30.42,West,281,5.0,8.0,56,0.00,,,0.00,Wunderground v.1.15,2013-01-17 16:23:00,
2013-01-17 10:25:00,15.2,2.3,30.42,WNW,290,4.0,8.0,56,0.00,,,0.00,Wunderground v.1.15,2013-01-17 16:25:00,
2013-01-17 10:26:00,15.3,2.0,30.42,West,265,4.0,4.0,55,0.00,,,0.00,Wunderground v.1.15,2013-01-17 16:26:00,
2013-01-17 10:27:00,15.3,1.6,30.42,NW,306,4.0,8.0,54,0.00,,,0.00,Wunderground v.1.15,2013-01-17 16:27:00,
2013-01-17 10:29:00,15.5,1.8,30.42,NW,317,4.0,13.0,54,0.00,,,0.00,Wunderground v.1.15,2013-01-17 16:29:00,
2013-01-17 10:30:00,15.5,1.8,30.43,NE,46,4.0,13.0,54,0.00,,,0.00,Wunderground v.1.15,2013-01-17 16:30:00,
2013-01-17 10:34:00,15.7,1.6,30.43,West,261,4.0,13.0,53,0.00,,,0.00,Wunderground v.1.15,2013-01-17 16:34:00,
2013-01-17 10:37:00,15.8,1.7,30.43,WSW,256,4.0,13.0,53,0.00,,,0.00,Wunderground v.1.15,2013-01-17 16:37:00,
2013-01-17 10:38:00,16.0,1.9,30.43,West,271,4.0,13.0,53,0.00,,,0.00,Wunderground v.1.15,2013-01-17 16:38:00,
2013-01-17 10:39:00,16.3,4.1,30.43,WNW,290,4.0,13.0,58,0.00,,,0.00,Wunderground v.1.15,2013-01-17 16:39:00,
2013-01-17 10:41:00,16.4,3.0,30.43,WNW,291,2.0,-999.0,55,-99.99,,,0.00,weatherlink.com 1.10,2013-01-17 16:41:00,
2013-01-17 10:44:00,16.3,1.7,30.43,WSW,244,3.0,13.0,52,0.00,,,0.00,Wunderground v.1.15,2013-01-17 16:44:00,
2013-01-17 10:45:00,16.2,1.2,30.43,West,264,3.0,13.0,51,0.00,,,0.00,Wunderground v.1.15,2013-01-17 16:45:00,
2013-01-17 10:48:00,16.3,2.1,30.42,West,277,4.0,13.0,53,0.00,,,0.00,Wunderground v.1.15,2013-01-17 16:48:00,
2013-01-17 10:50:00,16.5,2.7,30.42,WSW,250,4.0,13.0,54,0.00,,,0.00,Wunderground v.1.15,2013-01-17 16:50:00,
2013-01-17 10:51:00,16.6,2.4,30.42,West,281,4.0,13.0,53,0.00,,,0.00,Wunderground v.1.15,2013-01-17 16:51:00,
2013-01-17 10:53:00,16.5,1.9,30.42,WNW,291,5.0,13.0,52,0.00,,,0.00,Wunderground v.1.15,2013-01-17 16:53:00,
2013-01-17 10:56:00,16.1,1.0,30.42,WSW,253,7.0,-999.0,51,-99.99,,,0.00,weatherlink.com 1.10,2013-01-17 16:56:00,
2013-01-17 10:58:00,16.1,1.5,30.42,WNW,283,5.0,5.0,52,0.00,,,0.00,Wunderground v.1.15,2013-01-17 16:58:00,
2013-01-17 11:00:00,16.2,2.0,30.42,NNW,338,5.0,14.0,53,0.00,,,0.00,Wunderground v.1.15,2013-01-17 17:00:00,
2013-01-17 11:02:00,16.1,1.5,30.42,WNW,288,5.0,14.0,52,0.00,,,0.00,Wunderground v.1.15,2013-01-17 17:02:00,
2013-01-17 11:04:00,15.9,0.9,30.42,West,271,5.0,14.0,51,0.00,,,0.00,Wunderground v.1.15,2013-01-17 17:04:00,
2013-01-17 11:06:00,16.0,1.9,30.42,WNW,298,5.0,14.0,53,0.00,,,0.00,Wunderground v.1.15,2013-01-17 17:06:00,
2013-01-17 11:08:00,16.0,1.0,30.42,WNW,282,5.0,8.0,51,0.00,,,0.00,Wunderground v.1.15,2013-01-17 17:08:00,
2013-01-17 11:10:00,16.0,1.0,30.42,WNW,286,9.0,-999.0,51,-99.99,,,0.00,weatherlink.com 1.10,2013-01-17 17:10:00,
2013-01-17 11:13:00,16.0,1.9,30.42,North,355,6.0,14.0,53,0.00,,,0.00,Wunderground v.1.15,2013-01-17 17:13:00,
2013-01-17 11:14:00,16.2,2.4,30.42,NNW,334,6.0,14.0,54,0.00,,,0.00,Wunderground v.1.15,2013-01-17 17:14:00,
2013-01-17 11:15:00,16.4,2.2,30.42,WNW,299,6.0,14.0,53,0.00,,,0.00,Wunderground v.1.15,2013-01-17 17:15:00,
2013-01-17 11:19:00,17.1,3.3,30.41,WNW,285,5.0,14.0,54,0.00,,,0.00,Wunderground v.1.15,2013-01-17 17:19:00,
2013-01-17 11:23:00,17.0,1.5,30.41,West,279,4.0,14.0,50,0.00,,,0.00,Wunderground v.1.15,2013-01-17 17:23:00,
2013-01-17 11:26:00,17.1,2.5,30.41,West,266,3.0,14.0,52,0.00,,,0.00,Wunderground v.1.15,2013-01-17 17:26:00,
2013-01-17 11:27:00,17.2,3.0,30.41,NW,313,3.0,14.0,53,0.00,,,0.00,Wunderground v.1.15,2013-01-17 17:27:00,
2013-01-17 11:30:00,17.7,4.2,30.41,NW,324,3.0,14.0,55,0.00,,,0.00,Wunderground v.1.15,2013-01-17 17:30:00,
2013-01-17 11:32:00,18.0,3.7,30.40,West,279,3.0,14.0,53,0.00,,,0.00,Wunderground v.1.15,2013-01-17 17:32:00,
2013-01-17 11:34:00,18.0,2.5,30.40,WNW,283,3.0,14.0,50,0.00,,,0.00,Wunderground v.1.15,2013-01-17 17:34:00,
2013-01-17 11:35:00,18.1,4.2,30.40,WNW,284,2.0,14.0,54,0.00,,,0.00,Wunderground v.1.15,2013-01-17 17:35:00,
2013-01-17 11:36:00,18.2,3.9,30.40,North,349,2.0,14.0,53,0.00,,,0.00,Wunderground v.1.15,2013-01-17 17:36:00,
2013-01-17 11:37:00,18.4,6.1,30.40,West,279,2.0,14.0,58,0.00,,,0.00,Wunderground v.1.15,2013-01-17 17:37:00,
2013-01-17 11:39:00,18.6,3.9,30.40,North,350,2.0,14.0,52,0.00,,,0.00,Wunderground v.1.15,2013-01-17 17:39:00,
2013-01-17 11:41:00,18.8,4.5,30.40,WSW,257,2.0,14.0,53,0.00,,,0.00,Wunderground v.1.15,2013-01-17 17:41:00,
2013-01-17 11:42:00,18.9,4.0,30.40,West,281,6.0,-999.0,52,-99.99,,,0.00,weatherlink.com 1.10,2013-01-17 17:42:00,
2013-01-17 11:45:00,18.7,2.7,30.40,NW,312,4.0,14.0,49,0.00,,,0.00,Wunderground v.1.15,2013-01-17 17:45:00,
2013-01-17 11:48:00,18.8,4.1,30.40,West,268,3.0,14.0,52,0.00,,,0.00,Wunderground v.1.15,2013-01-17 17:48:00,
2013-01-17 11:49:00,18.9,4.1,30.40,WNW,282,3.0,14.0,52,0.00,,,0.00,Wunderground v.1.15,2013-01-17 17:49:00,
2013-01-17 11:53:00,19.0,3.4,30.39,West,277,3.0,14.0,50,0.00,,,0.00,Wunderground v.1.15,2013-01-17 17:53:00,
2013-01-17 11:54:00,19.0,4.2,30.39,NW,317,3.0,14.0,52,0.00,,,0.00,Wunderground v.1.15,2013-01-17 17:54:00,
2013-01-17 11:55:00,19.0,4.2,30.39,NW,321,3.0,14.0,52,0.00,,,0.00,Wunderground v.1.15,2013-01-17 17:55:00,
2013-01-17 11:58:00,19.3,4.9,30.39,West,264,3.0,7.0,53,0.00,,,0.00,Wunderground v.1.15,2013-01-17 17:58:00,
2013-01-17 12:02:00,19.5,5.1,30.40,WNW,302,4.0,7.0,53,0.00,,,0.00,Wunderground v.1.15,2013-01-17 18:02:00,
2013-01-17 12:05:00,19.7,5.7,30.39,WNW,301,3.0,7.0,54,0.00,,,0.00,Wunderground v.1.15,2013-01-17 18:05:00,
2013-01-17 12:06:00,19.7,5.7,30.39,West,276,3.0,8.0,54,0.00,,,0.00,Wunderground v.1.15,2013-01-17 18:06:00,
2013-01-17 12:08:00,19.5,5.1,30.39,North,9,3.0,8.0,53,0.00,,,0.00,Wunderground v.1.15,2013-01-17 18:08:00,
2013-01-17 12:10:00,19.5,5.5,30.39,North,5,3.0,8.0,54,0.00,,,0.00,Wunderground v.1.15,2013-01-17 18:10:00,
2013-01-17 12:11:00,19.6,5.0,30.39,West,280,4.0,-999.0,53,-99.99,,,0.00,weatherlink.com 1.10,2013-01-17 18:11:00,
2013-01-17 12:16:00,19.1,3.5,30.39,WNW,284,4.0,7.0,50,0.00,,,0.00,Wunderground v.1.15,2013-01-17 18:16:00,
2013-01-17 12:17:00,18.9,3.7,30.39,WNW,300,4.0,7.0,51,0.00,,,0.00,Wunderground v.1.15,2013-01-17 18:17:00,
2013-01-17 12:18:00,18.7,3.1,30.39,WSW,246,4.0,7.0,50,0.00,,,0.00,Wunderground v.1.15,2013-01-17 18:18:00,
2013-01-17 12:21:00,18.7,4.0,30.39,West,269,5.0,7.0,52,0.00,,,0.00,Wunderground v.1.15,2013-01-17 18:21:00,
2013-01-17 12:23:00,18.6,3.4,30.39,West,270,5.0,7.0,51,0.00,,,0.00,Wunderground v.1.15,2013-01-17 18:23:00,
2013-01-17 12:25:00,18.6,3.9,30.38,West,267,5.0,10.0,52,0.00,,,0.00,Wunderground v.1.15,2013-01-17 18:25:00,
2013-01-17 12:27:00,18.6,3.0,30.38,West,277,4.0,-999.0,51,-99.99,,,0.00,weatherlink.com 1.10,2013-01-17 18:27:00,
2013-01-17 12:31:00,19.1,5.2,30.37,WSW,243,4.0,9.0,54,0.00,,,0.00,Wunderground v.1.15,2013-01-17 18:31:00,
2013-01-17 12:33:00,19.5,5.1,30.37,West,273,4.0,9.0,53,0.00,,,0.00,Wunderground v.1.15,2013-01-17 18:33:00,
2013-01-17 12:37:00,19.7,3.6,30.37,WNW,290,4.0,9.0,49,0.00,,,0.00,Wunderground v.1.15,2013-01-17 18:37:00,
2013-01-17 12:41:00,19.8,4.1,30.37,WSW,246,4.0,9.0,50,0.00,,,0.00,Wunderground v.1.15,2013-01-17 18:41:00,
2013-01-17 12:43:00,19.8,4.6,30.38,West,263,4.0,9.0,51,0.00,,,0.00,Wunderground v.1.15,2013-01-17 18:43:00,
2013-01-17 12:47:00,19.8,5.0,30.38,West,262,5.0,9.0,52,0.00,,,0.00,Wunderground v.1.15,2013-01-17 18:47:00,
2013-01-17 12:48:00,19.7,4.9,30.38,WNW,296,5.0,9.0,52,0.00,,,0.00,Wunderground v.1.15,2013-01-17 18:48:00,
2013-01-17 12:50:00,19.7,4.5,30.37,West,265,6.0,9.0,51,0.00,,,0.00,Wunderground v.1.15,2013-01-17 18:50:00,
2013-01-17 12:54:00,19.9,4.7,30.37,West,261,6.0,9.0,51,0.00,,,0.00,Wunderground v.1.15,2013-01-17 18:54:00,
2013-01-17 12:55:00,20.0,4.7,30.37,WSW,247,6.0,9.0,51,0.00,,,0.00,Wunderground v.1.15,2013-01-17 18:55:00,
2013-01-17 12:58:00,20.2,4.9,30.37,West,266,6.0,8.0,51,0.00,,,0.00,Wunderground v.1.15,2013-01-17 18:58:00,
2013-01-17 13:00:00,20.0,4.3,30.37,West,281,6.0,8.0,50,0.00,,,0.00,Wunderground v.1.15,2013-01-17 19:00:00,
2013-01-17 13:02:00,20.1,4.8,30.37,West,278,6.0,8.0,51,0.00,,,0.00,Wunderground v.1.15,2013-01-17 19:02:00,
2013-01-17 13:04:00,20.0,4.7,30.37,West,280,7.0,8.0,51,0.00,,,0.00,Wunderground v.1.15,2013-01-17 19:04:00,
2013-01-17 13:07:00,20.2,4.9,30.37,WNW,292,7.0,7.0,51,0.00,,,0.00,Wunderground v.1.15,2013-01-17 19:07:00,
2013-01-17 13:09:00,20.4,5.1,30.37,West,268,6.0,7.0,51,0.00,,,0.00,Wunderground v.1.15,2013-01-17 19:09:00,
2013-01-17 13:10:00,20.4,4.7,30.37,West,273,6.0,7.0,50,0.00,,,0.00,Wunderground v.1.15,2013-01-17 19:10:00,
2013-01-17 13:12:00,20.5,4.8,30.37,West,259,6.0,7.0,50,0.00,,,0.00,Wunderground v.1.15,2013-01-17 19:12:00,
2013-01-17 13:15:00,21.0,6.1,30.37,WSW,237,5.0,7.0,52,0.00,,,0.00,Wunderground v.1.15,2013-01-17 19:15:00,
2013-01-17 13:19:00,21.2,5.4,30.37,WSW,252,5.0,9.0,50,0.00,,,0.00,Wunderground v.1.15,2013-01-17 19:19:00,
2013-01-17 13:20:00,21.2,5.0,30.37,West,265,5.0,9.0,49,0.00,,,0.00,Wunderground v.1.15,2013-01-17 19:20:00,
2013-01-17 13:22:00,21.1,5.3,30.37,WNW,285,5.0,10.0,50,0.00,,,0.00,Wunderground v.1.15,2013-01-17 19:22:00,
2013-01-17 13:23:00,21.0,5.2,30.37,West,271,6.0,10.0,50,0.00,,,0.00,Wunderground v.1.15,2013-01-17 19:23:00,
2013-01-17 13:25:00,20.7,5.0,30.36,WSW,244,7.0,11.0,50,0.00,,,0.00,Wunderground v.1.15,2013-01-17 19:25:00,
2013-01-17 13:28:00,20.8,5.5,30.37,West,273,8.0,11.0,51,0.00,,,0.00,Wunderground v.1.15,2013-01-17 19:28:00,
2013-01-17 13:30:00,21.0,6.1,30.37,WSW,257,8.0,11.0,52,0.00,,,0.00,Wunderground v.1.15,2013-01-17 19:30:00,
2013-01-17 13:31:00,21.2,6.3,30.37,West,261,8.0,14.0,52,0.00,,,0.00,Wunderground v.1.15,2013-01-17 19:31:00,
2013-01-17 13:35:00,21.0,5.7,30.37,WSW,254,7.0,15.0,51,0.00,,,0.00,Wunderground v.1.15,2013-01-17 19:35:00,
2013-01-17 13:37:00,21.2,6.3,30.37,West,265,7.0,11.0,52,0.00,,,0.00,Wunderground v.1.15,2013-01-17 19:37:00,
2013-01-17 13:38:00,21.4,6.9,30.37,WNW,298,6.0,11.0,53,0.00,,,0.00,Wunderground v.1.15,2013-01-17 19:38:00,
2013-01-17 13:41:00,22.0,7.0,30.37,NNW,333,5.0,11.0,52,0.00,,,0.00,Wunderground v.1.15,2013-01-17 19:41:00,
2013-01-17 13:43:00,22.1,6.3,30.37,WNW,288,4.0,11.0,50,0.00,,,0.00,Wunderground v.1.15,2013-01-17 19:43:00,
2013-01-17 13:45:00,21.8,5.5,30.37,WSW,258,4.0,11.0,49,0.00,,,0.00,Wunderground v.1.15,2013-01-17 19:45:00,
2013-01-17 13:47:00,21.6,5.8,30.37,WSW,243,5.0,11.0,50,0.00,,,0.00,Wunderground v.1.15,2013-01-17 19:47:00,
2013-01-17 13:50:00,21.5,6.1,30.36,West,269,6.0,11.0,51,0.00,,,0.00,Wunderground v.1.15,2013-01-17 19:50:00,
2013-01-17 13:52:00,21.8,6.4,30.36,West,277,6.0,11.0,51,0.00,,,0.00,Wunderground v.1.15,2013-01-17 19:52:00,
2013-01-17 13:54:00,22.0,7.0,30.36,West,263,5.0,11.0,52,0.00,,,0.00,Wunderground v.1.15,2013-01-17 19:54:00,
2013-01-17 13:57:00,22.0,6.2,30.36,West,274,5.0,5.0,50,0.00,,,0.00,Wunderground v.1.15,2013-01-17 19:57:00,
2013-01-17 13:58:00,22.1,6.7,30.36,West,275,4.0,5.0,51,0.00,,,0.00,Wunderground v.1.15,2013-01-17 19:58:00,
2013-01-17 13:59:00,22.2,6.0,30.36,West,266,4.0,-999.0,51,-99.99,,,0.00,weatherlink.com 1.10,2013-01-17 19:59:00,
2013-01-17 14:02:00,22.1,5.8,30.36,West,273,5.0,8.0,49,0.00,,,0.00,Wunderground v.1.15,2013-01-17 20:02:00,
2013-01-17 14:07:00,21.2,5.4,30.36,West,264,7.0,7.0,50,0.00,,,0.00,Wunderground v.1.15,2013-01-17 20:07:00,
2013-01-17 14:08:00,21.4,5.6,30.36,WSW,254,7.0,7.0,50,0.00,,,0.00,Wunderground v.1.15,2013-01-17 20:08:00,
2013-01-17 14:09:00,21.6,5.8,30.36,WNW,289,7.0,7.0,50,0.00,,,0.00,Wunderground v.1.15,2013-01-17 20:09:00,
2013-01-17 14:13:00,22.0,5.7,30.36,West,259,6.0,7.0,49,0.00,,,0.00,Wunderground v.1.15,2013-01-17 20:13:00,
2013-01-17 14:16:00,22.1,5.8,30.36,WSW,253,5.0,5.0,49,0.00,,,0.00,Wunderground v.1.15,2013-01-17 20:16:00,
2013-01-17 14:17:00,22.2,5.9,30.36,West,267,5.0,9.0,49,0.00,,,0.00,Wunderground v.1.15,2013-01-17 20:17:00,
2013-01-17 14:18:00,22.2,5.5,30.36,WNW,293,5.0,9.0,48,0.00,,,0.00,Wunderground v.1.15,2013-01-17 20:18:00,
2013-01-17 14:22:00,22.0,5.3,30.36,West,271,6.0,11.0,48,0.00,,,0.00,Wunderground v.1.15,2013-01-17 20:22:00,
2013-01-17 14:23:00,21.9,5.2,30.36,NW,309,6.0,11.0,48,0.00,,,0.00,Wunderground v.1.15,2013-01-17 20:23:00,
2013-01-17 14:24:00,22.0,5.7,30.36,WSW,257,5.0,11.0,49,0.00,,,0.00,Wunderground v.1.15,2013-01-17 20:24:00,
2013-01-17 14:27:00,22.2,5.9,30.36,SSW,211,5.0,5.0,49,0.00,,,0.00,Wunderground v.1.15,2013-01-17 20:27:00,
2013-01-17 14:28:00,22.4,6.5,30.36,WNW,284,5.0,5.0,50,0.00,,,0.00,Wunderground v.1.15,2013-01-17 20:28:00,
2013-01-17 14:29:00,22.5,6.6,30.36,SW,217,5.0,6.0,50,0.00,,,0.00,Wunderground v.1.15,2013-01-17 20:29:00,
2013-01-17 14:33:00,22.7,5.9,30.36,WSW,257,5.0,16.0,48,0.00,,,0.00,Wunderground v.1.15,2013-01-17 20:33:00,
2013-01-17 14:36:00,22.8,6.5,30.36,West,277,4.0,16.0,49,0.00,,,0.00,Wunderground v.1.15,2013-01-17 20:36:00,
2013-01-17 14:37:00,22.8,6.5,30.36,WNW,290,4.0,16.0,49,0.00,,,0.00,Wunderground v.1.15,2013-01-17 20:37:00,
2013-01-17 14:38:00,22.8,6.0,30.36,WSW,256,4.0,16.0,48,0.00,,,0.00,Wunderground v.1.15,2013-01-17 20:38:00,
2013-01-17 14:42:00,22.8,6.5,30.36,West,278,4.0,16.0,49,0.00,,,0.00,Wunderground v.1.15,2013-01-17 20:42:00,
2013-01-17 14:44:00,22.8,6.5,30.36,NW,324,4.0,16.0,49,0.00,,,0.00,Wunderground v.1.15,2013-01-17 20:44:00,
2013-01-17 14:49:00,23.0,7.1,30.36,West,266,4.0,16.0,50,0.00,,,0.00,Wunderground v.1.15,2013-01-17 20:49:00,
2013-01-17 14:50:00,23.1,6.7,30.36,North,355,5.0,16.0,49,0.00,,,0.00,Wunderground v.1.15,2013-01-17 20:50:00,
2013-01-17 14:55:00,23.2,8.2,30.36,NNW,331,5.0,16.0,52,0.00,,,0.00,Wunderground v.1.15,2013-01-17 20:55:00,
2013-01-17 14:57:00,23.4,7.5,30.36,NNW,331,4.0,4.0,50,0.00,,,0.00,Wunderground v.1.15,2013-01-17 20:57:00,
2013-01-17 14:58:00,23.5,7.1,30.36,WNW,284,4.0,7.0,49,0.00,,,0.00,Wunderground v.1.15,2013-01-17 20:58:00,
2013-01-17 15:00:00,23.3,7.0,30.36,NW,308,1.0,-999.0,49,-99.99,,,0.00,weatherlink.com 1.10,2013-01-17 21:00:00,
2013-01-17 15:04:00,23.4,7.0,30.36,West,269,4.0,12.0,49,0.00,,,0.00,Wunderground v.1.15,2013-01-17 21:04:00,
2013-01-17 15:06:00,23.4,7.0,30.36,North,351,4.0,4.0,49,0.00,,,0.00,Wunderground v.1.15,2013-01-17 21:06:00,
2013-01-17 15:09:00,23.3,6.9,30.36,West,277,4.0,7.0,49,0.00,,,0.00,Wunderground v.1.15,2013-01-17 21:09:00,
2013-01-17 15:12:00,23.3,7.0,30.36,NNW,342,5.0,-999.0,50,-99.99,,,0.00,weatherlink.com 1.10,2013-01-17 21:12:00,
2013-01-17 15:15:00,23.3,6.9,30.36,West,266,4.0,10.0,49,0.00,,,0.00,Wunderground v.1.15,2013-01-17 21:15:00,
2013-01-17 15:18:00,22.9,7.0,30.36,West,277,5.0,9.0,50,0.00,,,0.00,Wunderground v.1.15,2013-01-17 21:18:00,
2013-01-17 15:21:00,22.8,6.9,30.36,NNE,33,5.0,9.0,50,0.00,,,0.00,Wunderground v.1.15,2013-01-17 21:21:00,
2013-01-17 15:22:00,22.7,6.8,30.36,WNW,291,5.0,9.0,50,0.00,,,0.00,Wunderground v.1.15,2013-01-17 21:22:00,
2013-01-17 15:24:00,22.6,6.7,30.36,WNW,297,5.0,9.0,50,0.00,,,0.00,Wunderground v.1.15,2013-01-17 21:24:00,
2013-01-17 15:26:00,22.4,7.0,30.36,North,355,5.0,5.0,51,0.00,,,0.00,Wunderground v.1.15,2013-01-17 21:26:00,
2013-01-17 15:30:00,22.4,7.0,30.36,West,271,5.0,14.0,51,0.00,,,0.00,Wunderground v.1.15,2013-01-17 21:30:00,
2013-01-17 15:32:00,22.6,7.6,30.36,WSW,252,4.0,14.0,52,0.00,,,0.00,Wunderground v.1.15,2013-01-17 21:32:00,
2013-01-17 15:33:00,22.7,7.7,30.36,WSW,242,4.0,14.0,52,0.00,,,0.00,Wunderground v.1.15,2013-01-17 21:33:00,
2013-01-17 15:34:00,22.8,7.8,30.36,WNW,290,4.0,14.0,52,0.00,,,0.00,Wunderground v.1.15,2013-01-17 21:34:00,
2013-01-17 15:42:00,21.9,7.0,30.36,North,10,4.0,-999.0,53,-99.99,,,0.00,weatherlink.com 1.10,2013-01-17 21:42:00,
2013-01-17 15:44:00,21.7,7.2,30.36,West,280,4.0,14.0,53,0.00,,,0.00,Wunderground v.1.15,2013-01-17 21:44:00,
2013-01-17 15:47:00,21.5,7.8,30.37,West,270,4.0,14.0,55,0.00,,,0.00,Wunderground v.1.15,2013-01-17 21:47:00,
2013-01-17 15:48:00,21.4,7.3,30.37,SW,234,4.0,14.0,54,0.00,,,0.00,Wunderground v.1.15,2013-01-17 21:48:00,
2013-01-17 15:49:00,21.3,7.2,30.37,SSW,207,4.0,14.0,54,0.00,,,0.00,Wunderground v.1.15,2013-01-17 21:49:00,
2013-01-17 15:50:00,21.3,7.2,30.37,SW,234,4.0,14.0,54,0.00,,,0.00,Wunderground v.1.15,2013-01-17 21:50:00,
2013-01-17 15:57:00,21.0,7.3,30.37,WNW,289,5.0,5.0,55,0.00,,,0.00,Wunderground v.1.15,2013-01-17 21:57:00,
2013-01-17 15:58:00,21.1,8.0,30.37,WNW,283,2.0,-999.0,56,-99.99,,,0.00,weatherlink.com 1.10,2013-01-17 21:58:00,
2013-01-17 16:01:00,21.1,7.4,30.37,West,273,5.0,7.0,55,0.00,,,0.00,Wunderground v.1.15,2013-01-17 22:01:00,
2013-01-17 16:03:00,21.1,7.4,30.37,WNW,284,5.0,11.0,55,0.00,,,0.00,Wunderground v.1.15,2013-01-17 22:03:00,
2013-01-17 16:04:00,21.1,7.8,30.37,West,271,5.0,11.0,56,0.00,,,0.00,Wunderground v.1.15,2013-01-17 22:04:00,
2013-01-17 16:08:00,21.0,7.3,30.37,West,259,5.0,7.0,55,0.00,,,0.00,Wunderground v.1.15,2013-01-17 22:08:00,
2013-01-17 16:09:00,20.9,7.6,30.37,WNW,287,5.0,7.0,56,0.00,,,0.00,Wunderground v.1.15,2013-01-17 22:09:00,
2013-01-17 16:10:00,20.9,7.6,30.38,WSW,238,5.0,7.0,56,0.00,,,0.00,Wunderground v.1.15,2013-01-17 22:10:00,
2013-01-17 16:15:00,20.8,7.9,30.38,WNW,298,5.0,7.0,57,0.00,,,0.00,Wunderground v.1.15,2013-01-17 22:15:00,
2013-01-17 16:16:00,20.8,7.9,30.38,West,277,5.0,10.0,57,0.00,,,0.00,Wunderground v.1.15,2013-01-17 22:16:00,
2013-01-17 16:18:00,20.8,7.9,30.38,West,273,5.0,10.0,57,0.00,,,0.00,Wunderground v.1.15,2013-01-17 22:18:00,
2013-01-17 16:20:00,20.8,7.9,30.38,WNW,303,6.0,10.0,57,0.00,,,0.00,Wunderground v.1.15,2013-01-17 22:20:00,
2013-01-17 16:24:00,20.7,8.6,30.38,South,182,5.0,10.0,59,0.00,,,0.00,Wunderground v.1.15,2013-01-17 22:24:00,
2013-01-17 16:25:00,20.7,8.2,30.38,NNW,331,5.0,10.0,58,0.00,,,0.00,Wunderground v.1.15,2013-01-17 22:25:00,
2013-01-17 16:26:00,20.6,8.1,30.38,West,261,5.0,5.0,58,0.00,,,0.00,Wunderground v.1.15,2013-01-17 22:26:00,
2013-01-17 16:29:00,20.6,8.9,30.38,WNW,288,4.0,12.0,60,0.00,,,0.00,Wunderground v.1.15,2013-01-17 22:29:00,
2013-01-17 16:30:00,20.6,8.9,30.38,WNW,286,4.0,12.0,60,0.00,,,0.00,Wunderground v.1.15,2013-01-17 22:30:00,
2013-01-17 16:31:00,20.6,8.5,30.38,WNW,285,4.0,12.0,59,0.00,,,0.00,Wunderground v.1.15,2013-01-17 22:31:00,
2013-01-17 16:37:00,20.7,9.4,30.38,WSW,247,3.0,12.0,61,0.00,,,0.00,Wunderground v.1.15,2013-01-17 22:37:00,
2013-01-17 16:38:00,20.6,8.9,30.38,WNW,290,3.0,12.0,60,0.00,,,0.00,Wunderground v.1.15,2013-01-17 22:38:00,
2013-01-17 16:39:00,20.7,9.4,30.38,West,265,3.0,12.0,61,0.00,,,0.00,Wunderground v.1.15,2013-01-17 22:39:00,
2013-01-17 16:45:00,20.5,9.2,30.39,WNW,286,4.0,12.0,61,0.00,,,0.00,Wunderground v.1.15,2013-01-17 22:45:00,
2013-01-17 16:46:00,20.5,9.2,30.39,WNW,294,4.0,4.0,61,0.00,,,0.00,Wunderground v.1.15,2013-01-17 22:46:00,
2013-01-17 16:48:00,20.5,9.2,30.39,West,267,4.0,12.0,61,0.00,,,0.00,Wunderground v.1.15,2013-01-17 22:48:00,
2013-01-17 16:53:00,20.3,9.3,30.39,West,271,4.0,12.0,62,0.00,,,0.00,Wunderground v.1.15,2013-01-17 22:53:00,
2013-01-17 16:54:00,20.2,10.0,30.39,WNW,294,4.0,12.0,64,0.00,,,0.00,Wunderground v.1.15,2013-01-17 22:54:00,
2013-01-17 16:57:00,20.1,9.5,30.39,West,271,5.0,5.0,63,0.00,,,0.00,Wunderground v.1.15,2013-01-17 22:57:00,
2013-01-17 16:59:00,20.0,9.4,30.39,WSW,246,5.0,5.0,63,0.00,,,0.00,Wunderground v.1.15,2013-01-17 22:59:00,
2013-01-17 17:01:00,20.0,9.4,30.39,West,279,4.0,5.0,63,0.00,,,0.00,Wunderground v.1.15,2013-01-17 23:01:00,
2013-01-17 17:04:00,19.9,9.3,30.39,WNW,300,4.0,8.0,63,0.00,,,0.00,Wunderground v.1.15,2013-01-17 23:04:00,
2013-01-17 17:06:00,19.8,9.6,30.39,West,269,4.0,4.0,64,0.00,,,0.00,Wunderground v.1.15,2013-01-17 23:06:00,
2013-01-17 17:08:00,19.8,9.9,30.39,NNW,333,3.0,4.0,65,0.00,,,0.00,Wunderground v.1.15,2013-01-17 23:08:00,
2013-01-17 17:10:00,19.8,10.3,30.39,West,271,3.0,4.0,66,0.00,,,0.00,Wunderground v.1.15,2013-01-17 23:10:00,
2013-01-17 17:12:00,19.8,10.0,30.39,WNW,302,3.0,-999.0,66,-99.99,,,0.00,weatherlink.com 1.10,2013-01-17 23:12:00,
2013-01-17 17:14:00,19.7,10.2,30.39,West,281,2.0,4.0,66,0.00,,,0.00,Wunderground v.1.15,2013-01-17 23:14:00,
2013-01-17 17:17:00,19.6,10.1,30.39,West,277,2.0,7.0,66,0.00,,,0.00,Wunderground v.1.15,2013-01-17 23:17:00,
2013-01-17 17:18:00,19.6,9.7,30.39,North,360,2.0,7.0,65,0.00,,,0.00,Wunderground v.1.15,2013-01-17 23:18:00,
2013-01-17 17:19:00,19.6,10.1,30.39,West,266,2.0,7.0,66,0.00,,,0.00,Wunderground v.1.15,2013-01-17 23:19:00,
2013-01-17 17:22:00,19.6,10.7,30.39,West,269,3.0,7.0,68,0.00,,,0.00,Wunderground v.1.15,2013-01-17 23:22:00,
2013-01-17 17:23:00,19.6,10.7,30.39,NNW,342,3.0,7.0,68,0.00,,,0.00,Wunderground v.1.15,2013-01-17 23:23:00,
2013-01-17 17:24:00,19.5,10.3,30.39,WNW,298,3.0,7.0,67,0.00,,,0.00,Wunderground v.1.15,2013-01-17 23:24:00,
2013-01-17 17:26:00,19.4,9.9,30.39,West,274,3.0,5.0,66,0.00,,,0.00,Wunderground v.1.15,2013-01-17 23:26:00,
2013-01-17 17:27:00,19.4,9.9,30.39,WNW,292,3.0,14.0,66,0.00,,,0.00,Wunderground v.1.15,2013-01-17 23:27:00,
2013-01-17 17:29:00,19.4,10.2,30.39,WNW,299,3.0,14.0,67,0.00,,,0.00,Wunderground v.1.15,2013-01-17 23:29:00,
2013-01-17 17:31:00,19.3,10.1,30.39,NNW,335,3.0,14.0,67,0.00,,,0.00,Wunderground v.1.15,2013-01-17 23:31:00,
2013-01-17 17:35:00,19.1,10.3,30.39,NW,325,3.0,14.0,68,0.00,,,0.00,Wunderground v.1.15,2013-01-17 23:35:00,
2013-01-17 17:38:00,19.1,10.3,30.39,NNW,345,3.0,14.0,68,0.00,,,0.00,Wunderground v.1.15,2013-01-17 23:38:00,
2013-01-17 17:41:00,19.0,10.5,30.39,WNW,299,3.0,14.0,69,0.00,,,0.00,Wunderground v.1.15,2013-01-17 23:41:00,
2013-01-17 17:42:00,19.0,10.5,30.40,WNW,284,4.0,14.0,69,0.00,,,0.00,Wunderground v.1.15,2013-01-17 23:42:00,
2013-01-17 17:44:00,18.9,10.4,30.40,WSW,242,4.0,14.0,69,0.00,,,0.00,Wunderground v.1.15,2013-01-17 23:44:00,
2013-01-17 17:49:00,18.7,10.2,30.40,WNW,290,3.0,14.0,69,0.00,,,0.00,Wunderground v.1.15,2013-01-17 23:49:00,
2013-01-17 17:51:00,18.6,10.1,30.40,WSW,250,3.0,14.0,69,0.00,,,0.00,Wunderground v.1.15,2013-01-17 23:51:00,
2013-01-17 17:54:00,18.5,10.0,30.40,WNW,288,3.0,14.0,69,0.00,,,0.00,Wunderground v.1.15,2013-01-17 23:54:00,
2013-01-17 17:55:00,18.4,10.2,30.40,NW,306,2.0,14.0,70,0.00,,,0.00,Wunderground v.1.15,2013-01-17 23:55:00,
2013-01-17 17:57:00,18.4,10.2,30.40,NW,323,2.0,2.0,70,0.00,,,0.00,Wunderground v.1.15,2013-01-17 23:57:00,
2013-01-17 17:58:00,18.4,10.6,30.40,West,273,2.0,3.0,71,0.00,,,0.00,Wunderground v.1.15,2013-01-17 23:58:00,
2013-01-17 18:00:00,18.3,10.1,30.40,NNW,339,2.0,4.0,70,0.00,,,0.00,Wunderground v.1.15,2013-01-18 00:00:00,
2013-01-17 18:01:00,18.3,10.1,30.40,West,276,2.0,4.0,70,0.00,,,0.00,Wunderground v.1.15,2013-01-18 00:01:00,
2013-01-17 18:04:00,18.2,10.7,30.40,WNW,295,2.0,4.0,72,0.00,,,0.00,Wunderground v.1.15,2013-01-18 00:04:00,
2013-01-17 18:07:00,18.2,10.7,30.40,West,278,2.0,3.0,72,0.00,,,0.00,Wunderground v.1.15,2013-01-18 00:07:00,
2013-01-17 18:10:00,18.2,10.7,30.40,NW,306,2.0,4.0,72,0.00,,,0.00,Wunderground v.1.15,2013-01-18 00:10:00,
2013-01-17 18:11:00,18.1,10.6,30.40,WNW,288,2.0,4.0,72,0.00,,,0.00,Wunderground v.1.15,2013-01-18 00:11:00,
2013-01-17 18:16:00,18.0,10.2,30.40,NW,324,3.0,3.0,71,0.00,,,0.00,Wunderground v.1.15,2013-01-18 00:16:00,
2013-01-17 18:19:00,17.9,10.1,30.40,North,355,2.0,3.0,71,0.00,,,0.00,Wunderground v.1.15,2013-01-18 00:19:00,
2013-01-17 18:20:00,17.9,10.1,30.40,NW,306,2.0,3.0,71,0.00,,,0.00,Wunderground v.1.15,2013-01-18 00:20:00,
2013-01-17 18:24:00,18.0,11.7,30.41,NNW,345,2.0,3.0,76,0.00,,,0.00,Wunderground v.1.15,2013-01-18 00:24:00,
2013-01-17 18:25:00,17.9,11.0,30.41,NNW,329,2.0,3.0,74,0.00,,,0.00,Wunderground v.1.15,2013-01-18 00:25:00,
2013-01-17 18:28:00,17.8,11.0,30.41,NW,319,2.0,-999.0,75,-99.99,,,0.00,weatherlink.com 1.10,2013-01-18 00:28:00,
2013-01-17 18:30:00,17.8,11.2,30.41,NNW,348,2.0,12.0,75,0.00,,,0.00,Wunderground v.1.15,2013-01-18 00:30:00,
2013-01-17 18:34:00,17.8,11.5,30.41,NNW,331,2.0,12.0,76,0.00,,,0.00,Wunderground v.1.15,2013-01-18 00:34:00,
2013-01-17 18:36:00,17.7,11.1,30.41,West,270,2.0,12.0,75,0.00,,,0.00,Wunderground v.1.15,2013-01-18 00:36:00,
2013-01-17 18:37:00,17.7,11.1,30.41,West,271,2.0,12.0,75,0.00,,,0.00,Wunderground v.1.15,2013-01-18 00:37:00,
2013-01-17 18:39:00,17.6,11.3,30.41,West,271,2.0,12.0,76,0.00,,,0.00,Wunderground v.1.15,2013-01-18 00:39:00,
2013-01-17 18:43:00,17.4,10.0,30.41,West,277,3.0,-999.0,74,-99.99,,,0.00,weatherlink.com 1.10,2013-01-18 00:43:00,
2013-01-17 18:45:00,17.2,10.0,30.41,West,277,1.0,12.0,73,0.00,,,0.00,Wunderground v.1.15,2013-01-18 00:45:00,
2013-01-17 18:46:00,17.2,10.0,30.41,West,279,1.0,12.0,73,0.00,,,0.00,Wunderground v.1.15,2013-01-18 00:46:00,
2013-01-17 18:49:00,17.1,10.5,30.41,NW,304,1.0,12.0,75,0.00,,,0.00,Wunderground v.1.15,2013-01-18 00:49:00,
2013-01-17 18:50:00,17.1,10.8,30.42,NW,316,1.0,12.0,76,0.00,,,0.00,Wunderground v.1.15,2013-01-18 00:50:00,
2013-01-17 18:54:00,17.0,10.4,30.42,West,267,1.0,12.0,75,0.00,,,0.00,Wunderground v.1.15,2013-01-18 00:54:00,
2013-01-17 18:57:00,16.9,10.3,30.42,West,267,1.0,1.0,75,0.00,,,0.00,Wunderground v.1.15,2013-01-18 00:57:00,
2013-01-17 18:59:00,16.8,10.5,30.42,NW,326,1.0,3.0,76,0.00,,,0.00,Wunderground v.1.15,2013-01-18 00:59:00,
2013-01-17 19:00:00,16.8,10.5,30.42,NW,326,1.0,3.0,76,0.00,,,0.00,Wunderground v.1.15,2013-01-18 01:00:00,
2013-01-17 19:05:00,16.8,10.8,30.42,NW,324,1.0,3.0,77,0.00,,,0.00,Wunderground v.1.15,2013-01-18 01:05:00,
2013-01-17 19:06:00,16.8,10.5,30.42,NW,324,1.0,1.0,76,0.00,,,0.00,Wunderground v.1.15,2013-01-18 01:06:00,
2013-01-17 19:08:00,16.8,11.1,30.42,NW,324,1.0,2.0,78,0.00,,,0.00,Wunderground v.1.15,2013-01-18 01:08:00,
2013-01-17 19:11:00,16.7,10.7,30.42,NW,324,1.0,2.0,77,0.00,,,0.00,Wunderground v.1.15,2013-01-18 01:11:00,
2013-01-17 19:13:00,16.7,11.0,30.42,NW,324,0.0,-999.0,78,-99.99,,,0.00,weatherlink.com 1.10,2013-01-18 01:13:00,
2013-01-17 19:15:00,16.7,11.0,30.42,NW,324,0.0,2.0,78,0.00,,,0.00,Wunderground v.1.15,2013-01-18 01:15:00,
2013-01-17 19:16:00,16.7,11.6,30.42,NW,324,0.0,0.0,80,0.00,,,0.00,Wunderground v.1.15,2013-01-18 01:16:00,
2013-01-17 19:17:00,16.7,11.9,30.42,NW,325,0.0,2.0,81,0.00,,,0.00,Wunderground v.1.15,2013-01-18 01:17:00,
2013-01-17 19:18:00,16.7,11.6,30.42,NNW,327,0.0,2.0,80,0.00,,,0.00,Wunderground v.1.15,2013-01-18 01:18:00,
2013-01-17 19:22:00,16.4,10.2,30.42,NNW,327,1.0,2.0,76,0.00,,,0.00,Wunderground v.1.15,2013-01-18 01:22:00,
2013-01-17 19:25:00,16.4,10.4,30.42,NW,325,1.0,2.0,77,0.00,,,0.00,Wunderground v.1.15,2013-01-18 01:25:00,
2013-01-17 19:28:00,16.4,10.4,30.42,NW,325,1.0,7.0,77,0.00,,,0.00,Wunderground v.1.15,2013-01-18 01:28:00,
2013-01-17 19:29:00,16.4,11.0,30.42,NW,325,0.0,-999.0,79,-99.99,,,0.00,weatherlink.com 1.10,2013-01-18 01:29:00,
2013-01-17 19:33:00,18.0,15.3,30.42,NW,325,1.0,7.0,89,0.00,,,0.00,Wunderground v.1.15,2013-01-18 01:33:00,
2013-01-17 19:35:00,18.2,15.2,30.42,NW,325,1.0,7.0,88,0.00,,,0.00,Wunderground v.1.15,2013-01-18 01:35:00,
2013-01-17 19:36:00,18.4,15.4,30.42,NW,325,0.0,7.0,88,0.00,,,0.00,Wunderground v.1.15,2013-01-18 01:36:00,
2013-01-17 19:40:00,18.9,15.9,30.42,NW,325,0.0,7.0,88,0.00,,,0.00,Wunderground v.1.15,2013-01-18 01:40:00,
2013-01-17 19:41:00,18.9,15.9,30.42,NW,325,0.0,7.0,88,0.00,,,0.00,Wunderground v.1.15,2013-01-18 01:41:00,
2013-01-17 19:44:00,18.7,15.2,30.43,NW,325,0.0,7.0,86,0.00,,,0.00,Wunderground v.1.15,2013-01-18 01:44:00,
2013-01-17 19:46:00,18.4,14.4,30.43,NW,325,0.0,7.0,84,0.00,,,0.00,Wunderground v.1.15,2013-01-18 01:46:00,
2013-01-17 19:48:00,18.1,14.1,30.43,NW,325,0.0,7.0,84,0.00,,,0.00,Wunderground v.1.15,2013-01-18 01:48:00,
2013-01-17 19:50:00,17.7,12.9,30.43,NNW,338,0.0,7.0,81,0.00,,,0.00,Wunderground v.1.15,2013-01-18 01:50:00,
2013-01-17 19:53:00,17.3,12.7,30.43,WNW,288,1.0,7.0,82,0.00,,,0.00,Wunderground v.1.15,2013-01-18 01:53:00,
2013-01-17 19:54:00,17.2,12.4,30.43,WNW,286,1.0,7.0,81,0.00,,,0.00,Wunderground v.1.15,2013-01-18 01:54:00,
2013-01-17 19:59:00,17.0,11.9,30.44,NNW,347,2.0,4.0,80,0.00,,,0.00,Wunderground v.1.15,2013-01-18 01:59:00,
2013-01-17 20:00:00,17.0,12.5,30.44,NW,312,2.0,4.0,82,0.00,,,0.00,Wunderground v.1.15,2013-01-18 02:00:00,
2013-01-17 20:01:00,16.9,12.1,30.44,NNW,329,2.0,4.0,81,0.00,,,0.00,Wunderground v.1.15,2013-01-18 02:01:00,
2013-01-17 20:06:00,16.5,10.8,30.44,NW,322,2.0,3.0,78,0.00,,,0.00,Wunderground v.1.15,2013-01-18 02:06:00,
2013-01-17 20:07:00,16.4,10.7,30.44,NW,316,3.0,3.0,78,0.00,,,0.00,Wunderground v.1.15,2013-01-18 02:07:00,
2013-01-17 20:08:00,16.3,10.4,30.44,NW,317,2.0,5.0,77,0.00,,,0.00,Wunderground v.1.15,2013-01-18 02:08:00,
2013-01-17 20:13:00,15.9,10.0,30.44,NNW,348,0.0,-999.0,78,-99.99,,,0.00,weatherlink.com 1.10,2013-01-18 02:13:00,
2013-01-17 20:16:00,15.8,10.4,30.44,NNW,348,3.0,3.0,79,0.00,,,0.00,Wunderground v.1.15,2013-01-18 02:16:00,
2013-01-17 20:18:00,15.6,10.0,30.44,NW,317,3.0,6.0,78,0.00,,,0.00,Wunderground v.1.15,2013-01-18 02:18:00,
2013-01-17 20:19:00,15.5,9.6,30.44,WNW,303,3.0,6.0,77,0.00,,,0.00,Wunderground v.1.15,2013-01-18 02:19:00,
2013-01-17 20:21:00,15.4,9.8,30.44,NW,322,2.0,6.0,78,0.00,,,0.00,Wunderground v.1.15,2013-01-18 02:21:00,
2013-01-17 20:24:00,15.5,10.4,30.44,NNW,328,2.0,6.0,80,0.00,,,0.00,Wunderground v.1.15,2013-01-18 02:24:00,
2013-01-17 20:27:00,15.3,10.0,30.44,NNW,327,2.0,7.0,79,0.00,,,0.00,Wunderground v.1.15,2013-01-18 02:27:00,
2013-01-17 20:30:00,15.2,9.9,30.44,NNW,339,2.0,7.0,79,0.00,,,0.00,Wunderground v.1.15,2013-01-18 02:30:00,
2013-01-17 20:31:00,15.2,10.1,30.44,NNW,331,2.0,7.0,80,0.00,,,0.00,Wunderground v.1.15,2013-01-18 02:31:00,
2013-01-17 20:32:00,15.1,10.0,30.44,NW,320,2.0,7.0,80,0.00,,,0.00,Wunderground v.1.15,2013-01-18 02:32:00,
2013-01-17 20:35:00,15.1,9.8,30.44,NW,325,2.0,7.0,79,0.00,,,0.00,Wunderground v.1.15,2013-01-18 02:35:00,
2013-01-17 20:38:00,15.0,9.7,30.44,NNW,336,2.0,5.0,79,0.00,,,0.00,Wunderground v.1.15,2013-01-18 02:38:00,
2013-01-17 20:40:00,15.0,9.9,30.44,NNW,337,2.0,5.0,80,0.00,,,0.00,Wunderground v.1.15,2013-01-18 02:40:00,
2013-01-17 20:41:00,14.9,9.8,30.44,North,355,2.0,5.0,80,0.00,,,0.00,Wunderground v.1.15,2013-01-18 02:41:00,
2013-01-17 20:43:00,14.8,9.0,30.44,NNW,328,0.0,-999.0,79,-99.99,,,0.00,weatherlink.com 1.10,2013-01-18 02:43:00,
2013-01-17 20:48:00,14.8,10.0,30.44,WNW,300,2.0,5.0,81,0.00,,,0.00,Wunderground v.1.15,2013-01-18 02:48:00,
2013-01-17 20:52:00,14.8,10.0,30.44,North,355,2.0,5.0,81,0.00,,,0.00,Wunderground v.1.15,2013-01-18 02:52:00,
2013-01-17 20:53:00,14.8,10.0,30.44,NNW,327,2.0,5.0,81,0.00,,,0.00,Wunderground v.1.15,2013-01-18 02:53:00,
2013-01-17 20:55:00,14.6,9.8,30.44,WSW,242,1.0,5.0,81,0.00,,,0.00,Wunderground v.1.15,2013-01-18 02:55:00,
2013-01-17 20:59:00,15.0,11.0,30.44,NNW,348,1.0,-999.0,83,-99.99,,,0.00,weatherlink.com 1.10,2013-01-18 02:59:00,
2013-01-17 21:00:00,15.3,11.9,30.44,NNW,348,1.0,2.0,86,0.00,,,0.00,Wunderground v.1.15,2013-01-18 03:00:00,
2013-01-17 21:03:00,15.3,11.3,30.45,NW,313,1.0,4.0,84,0.00,,,0.00,Wunderground v.1.15,2013-01-18 03:03:00,
2013-01-17 21:04:00,15.2,11.0,30.45,NW,313,1.0,4.0,83,0.00,,,0.00,Wunderground v.1.15,2013-01-18 03:04:00,
2013-01-17 21:06:00,15.5,12.1,30.45,NW,313,1.0,1.0,86,0.00,,,0.00,Wunderground v.1.15,2013-01-18 03:06:00,
2013-01-17 21:10:00,15.3,11.3,30.45,NW,321,1.0,2.0,84,0.00,,,0.00,Wunderground v.1.15,2013-01-18 03:10:00,
2013-01-17 21:11:00,15.2,11.0,30.45,NW,322,1.0,2.0,83,0.00,,,0.00,Wunderground v.1.15,2013-01-18 03:11:00,
2013-01-17 21:14:00,14.7,9.9,30.45,NW,313,1.0,3.0,81,0.00,,,0.00,Wunderground v.1.15,2013-01-18 03:14:00,
2013-01-17 21:19:00,14.4,10.2,30.45,NW,326,1.0,2.0,83,0.00,,,0.00,Wunderground v.1.15,2013-01-18 03:19:00,
2013-01-17 21:20:00,14.3,9.8,30.45,WNW,303,1.0,2.0,82,0.00,,,0.00,Wunderground v.1.15,2013-01-18 03:20:00,
2013-01-17 21:24:00,14.1,9.3,30.45,NW,311,2.0,5.0,81,0.00,,,0.00,Wunderground v.1.15,2013-01-18 03:24:00,
2013-01-17 21:25:00,14.1,9.3,30.45,WNW,303,2.0,5.0,81,0.00,,,0.00,Wunderground v.1.15,2013-01-18 03:25:00,
2013-01-17 21:26:00,14.0,9.2,30.45,NW,313,2.0,2.0,81,0.00,,,0.00,Wunderground v.1.15,2013-01-18 03:26:00,
2013-01-17 21:28:00,14.0,9.0,30.45,NNW,331,4.0,-999.0,81,-99.99,,,0.00,weatherlink.com 1.10,2013-01-18 03:28:00,
2013-01-17 21:33:00,13.9,9.4,30.44,West,268,2.0,8.0,82,0.00,,,0.00,Wunderground v.1.15,2013-01-18 03:33:00,
2013-01-17 21:34:00,13.9,9.4,30.44,NNW,342,2.0,8.0,82,0.00,,,0.00,Wunderground v.1.15,2013-01-18 03:34:00,
2013-01-17 21:35:00,13.8,9.0,30.44,North,350,2.0,8.0,81,0.00,,,0.00,Wunderground v.1.15,2013-01-18 03:35:00,
2013-01-17 21:36:00,13.8,8.8,30.44,NNW,346,2.0,8.0,80,0.00,,,0.00,Wunderground v.1.15,2013-01-18 03:36:00,
2013-01-17 21:40:00,13.7,9.0,30.44,WNW,297,1.0,8.0,81,0.00,,,0.00,Wunderground v.1.15,2013-01-18 03:40:00,
2013-01-17 21:43:00,14.2,11.0,30.44,NW,307,1.0,-999.0,85,-99.99,,,0.00,weatherlink.com 1.10,2013-01-18 03:43:00,
2013-01-17 21:44:00,14.2,10.5,30.44,NW,307,1.0,8.0,85,0.00,,,0.00,Wunderground v.1.15,2013-01-18 03:44:00,
2013-01-17 21:46:00,14.1,10.2,30.44,NNE,21,1.0,8.0,84,0.00,,,0.00,Wunderground v.1.15,2013-01-18 03:46:00,
2013-01-17 21:48:00,13.8,9.3,30.44,North,355,1.0,8.0,82,0.00,,,0.00,Wunderground v.1.15,2013-01-18 03:48:00,
2013-01-17 21:49:00,13.7,9.0,30.44,North,355,1.0,8.0,81,0.00,,,0.00,Wunderground v.1.15,2013-01-18 03:49:00,
2013-01-17 21:52:00,13.9,10.0,30.44,North,355,1.0,8.0,84,0.00,,,0.00,Wunderground v.1.15,2013-01-18 03:52:00,
2013-01-17 21:57:00,13.7,9.5,30.43,North,355,1.0,1.0,83,0.00,,,0.00,Wunderground v.1.15,2013-01-18 03:57:00,
2013-01-17 21:58:00,13.5,9.3,30.43,North,355,1.0,1.0,83,0.00,,,0.00,Wunderground v.1.15,2013-01-18 03:58:00,
2013-01-17 21:59:00,13.6,9.9,30.43,North,355,1.0,1.0,85,0.00,,,0.00,Wunderground v.1.15,2013-01-18 03:59:00,
2013-01-17 22:02:00,13.5,9.8,30.43,North,355,1.0,2.0,85,0.00,,,0.00,Wunderground v.1.15,2013-01-18 04:02:00,
2013-01-17 22:04:00,13.3,9.6,30.42,North,355,1.0,2.0,85,0.00,,,0.00,Wunderground v.1.15,2013-01-18 04:04:00,
2013-01-17 22:07:00,12.9,9.0,30.42,North,355,1.0,1.0,84,0.00,,,0.00,Wunderground v.1.15,2013-01-18 04:07:00,
2013-01-17 22:09:00,12.7,8.5,30.43,North,355,2.0,3.0,83,0.00,,,0.00,Wunderground v.1.15,2013-01-18 04:09:00,
2013-01-17 22:12:00,12.6,8.4,30.43,North,355,2.0,3.0,83,0.00,,,0.00,Wunderground v.1.15,2013-01-18 04:12:00,
2013-01-17 22:13:00,12.5,9.0,30.43,North,355,0.0,-999.0,84,-99.99,,,0.00,weatherlink.com 1.10,2013-01-18 04:13:00,
2013-01-17 22:14:00,12.5,8.6,30.43,North,355,1.0,3.0,84,0.00,,,0.00,Wunderground v.1.15,2013-01-18 04:14:00,
2013-01-17 22:16:00,12.7,8.8,30.43,North,355,1.0,1.0,84,0.00,,,0.00,Wunderground v.1.15,2013-01-18 04:16:00,
2013-01-17 22:18:00,13.0,9.6,30.43,North,355,1.0,3.0,86,0.00,,,0.00,Wunderground v.1.15,2013-01-18 04:18:00,
2013-01-17 22:19:00,13.0,9.6,30.43,North,355,1.0,3.0,86,0.00,,,0.00,Wunderground v.1.15,2013-01-18 04:19:00,
2013-01-17 22:20:00,13.0,9.6,30.43,North,355,1.0,3.0,86,0.00,,,0.00,Wunderground v.1.15,2013-01-18 04:20:00,
2013-01-17 22:25:00,13.6,10.5,30.43,North,355,1.0,3.0,87,0.00,,,0.00,Wunderground v.1.15,2013-01-18 04:25:00,
2013-01-17 22:26:00,13.7,10.8,30.43,North,355,1.0,1.0,88,0.00,,,0.00,Wunderground v.1.15,2013-01-18 04:26:00,
2013-01-17 22:27:00,13.7,10.5,30.44,North,355,1.0,8.0,87,0.00,,,0.00,Wunderground v.1.15,2013-01-18 04:27:00,
2013-01-17 22:31:00,13.6,10.2,30.43,North,355,0.0,8.0,86,0.00,,,0.00,Wunderground v.1.15,2013-01-18 04:31:00,
2013-01-17 22:32:00,14.0,11.1,30.44,North,355,0.0,8.0,88,0.00,,,0.00,Wunderground v.1.15,2013-01-18 04:32:00,
2013-01-17 22:33:00,14.2,11.6,30.44,North,355,0.0,8.0,89,0.00,,,0.00,Wunderground v.1.15,2013-01-18 04:33:00,
2013-01-17 22:34:00,14.5,11.9,30.44,North,355,0.0,8.0,89,0.00,,,0.00,Wunderground v.1.15,2013-01-18 04:34:00,
2013-01-17 22:39:00,17.8,16.1,30.43,North,355,0.0,8.0,93,0.00,,,0.00,Wunderground v.1.15,2013-01-18 04:39:00,
2013-01-17 22:40:00,17.5,15.8,30.43,North,355,0.0,8.0,93,0.00,,,0.00,Wunderground v.1.15,2013-01-18 04:40:00,
2013-01-17 22:42:00,16.9,15.0,30.43,North,355,0.0,8.0,92,0.00,,,0.00,Wunderground v.1.15,2013-01-18 04:42:00,
2013-01-17 22:44:00,16.5,14.1,30.43,North,355,0.0,8.0,90,0.00,,,0.00,Wunderground v.1.15,2013-01-18 04:44:00,
2013-01-17 22:45:00,16.2,14.0,30.44,North,355,0.0,-999.0,89,-99.99,,,0.00,weatherlink.com 1.10,2013-01-18 04:45:00,
2013-01-17 22:47:00,15.9,13.0,30.43,North,355,0.0,8.0,88,0.00,,,0.00,Wunderground v.1.15,2013-01-18 04:47:00,
2013-01-17 22:50:00,15.7,12.8,30.44,North,355,0.0,8.0,88,0.00,,,0.00,Wunderground v.1.15,2013-01-18 04:50:00,
2013-01-17 22:52:00,15.0,11.8,30.44,North,355,0.0,8.0,87,0.00,,,0.00,Wunderground v.1.15,2013-01-18 04:52:00,
2013-01-17 22:53:00,14.5,11.1,30.44,North,355,0.0,8.0,86,0.00,,,0.00,Wunderground v.1.15,2013-01-18 04:53:00,
2013-01-17 22:54:00,14.1,10.4,30.45,North,355,0.0,8.0,85,0.00,,,0.00,Wunderground v.1.15,2013-01-18 04:54:00,
2013-01-17 22:59:00,12.3,8.0,30.45,North,355,3.0,-999.0,84,-99.99,,,0.00,weatherlink.com 1.10,2013-01-18 04:59:00,
2013-01-17 23:03:00,11.8,7.9,30.44,North,351,2.0,3.0,84,0.00,,,0.00,Wunderground v.1.15,2013-01-18 05:03:00,
2013-01-17 23:05:00,11.7,7.8,30.44,North,351,1.0,3.0,84,0.00,,,0.00,Wunderground v.1.15,2013-01-18 05:05:00,
2013-01-17 23:06:00,11.7,7.8,30.45,North,351,1.0,3.0,84,0.00,,,0.00,Wunderground v.1.15,2013-01-18 05:06:00,
2013-01-17 23:07:00,11.6,7.4,30.45,NNW,348,1.0,3.0,83,0.00,,,0.00,Wunderground v.1.15,2013-01-18 05:07:00,
2013-01-17 23:10:00,11.4,7.2,30.45,NNW,344,1.0,3.0,83,0.00,,,0.00,Wunderground v.1.15,2013-01-18 05:10:00,
2013-01-17 23:11:00,11.4,7.2,30.45,NNW,342,1.0,3.0,83,0.00,,,0.00,Wunderground v.1.15,2013-01-18 05:11:00,
2013-01-17 23:13:00,11.3,7.1,30.45,NNW,342,1.0,3.0,83,0.00,,,0.00,Wunderground v.1.15,2013-01-18 05:13:00,
2013-01-17 23:15:00,11.4,7.8,30.45,NNW,342,1.0,3.0,85,0.00,,,0.00,Wunderground v.1.15,2013-01-18 05:15:00,
2013-01-17 23:17:00,11.5,7.9,30.45,NNW,342,1.0,1.0,85,0.00,,,0.00,Wunderground v.1.15,2013-01-18 05:17:00,
2013-01-17 23:22:00,11.3,7.4,30.45,NNW,342,0.0,2.0,84,0.00,,,0.00,Wunderground v.1.15,2013-01-18 05:22:00,
2013-01-17 23:23:00,11.2,7.3,30.45,NNW,342,0.0,2.0,84,0.00,,,0.00,Wunderground v.1.15,2013-01-18 05:23:00,
2013-01-17 23:26:00,11.1,7.2,30.45,NNW,342,1.0,1.0,84,0.00,,,0.00,Wunderground v.1.15,2013-01-18 05:26:00,
2013-01-17 23:27:00,11.1,6.9,30.45,NNW,342,1.0,3.0,83,0.00,,,0.00,Wunderground v.1.15,2013-01-18 05:27:00,
2013-01-17 23:29:00,11.0,7.0,30.45,NNW,342,2.0,-999.0,83,-99.99,,,0.00,weatherlink.com 1.10,2013-01-18 05:29:00,
2013-01-17 23:31:00,10.9,6.8,30.45,NNW,340,2.0,3.0,83,0.00,,,0.00,Wunderground v.1.15,2013-01-18 05:31:00,
2013-01-17 23:34:00,10.9,6.8,30.45,NNW,338,2.0,3.0,83,0.00,,,0.00,Wunderground v.1.15,2013-01-18 05:34:00,
2013-01-17 23:35:00,10.9,6.8,30.45,NNW,338,2.0,3.0,83,0.00,,,0.00,Wunderground v.1.15,2013-01-18 05:35:00,
2013-01-17 23:37:00,10.8,6.7,30.45,NNW,338,2.0,3.0,83,0.00,,,0.00,Wunderground v.1.15,2013-01-18 05:37:00,
2013-01-17 23:39:00,10.7,8.8,30.45,NNW,338,2.0,3.0,92,0.00,,,0.00,Wunderground v.1.15,2013-01-18 05:39:00,
2013-01-17 23:40:00,10.7,6.6,30.45,NNW,338,2.0,3.0,83,0.00,,,0.00,Wunderground v.1.15,2013-01-18 05:40:00,
2013-01-17 23:42:00,10.7,6.6,30.45,NNW,338,2.0,3.0,83,0.00,,,0.00,Wunderground v.1.15,2013-01-18 05:42:00,
2013-01-17 23:44:00,10.7,6.6,30.45,WNW,294,2.0,4.0,83,0.00,,,0.00,Wunderground v.1.15,2013-01-18 05:44:00,
2013-01-17 23:46:00,10.7,6.6,30.45,WNW,294,2.0,2.0,83,0.00,,,0.00,Wunderground v.1.15,2013-01-18 05:46:00,
2013-01-17 23:49:00,10.6,6.5,30.45,West,279,2.0,3.0,83,0.00,,,0.00,Wunderground v.1.15,2013-01-18 05:49:00,
2013-01-17 23:53:00,10.5,6.4,30.45,West,279,3.0,4.0,83,0.00,,,0.00,Wunderground v.1.15,2013-01-18 05:53:00,
2013-01-17 23:54:00,10.5,6.4,30.45,West,279,3.0,4.0,83,0.00,,,0.00,Wunderground v.1.15,2013-01-18 05:54:00,
2013-01-17 23:55:00,10.5,6.4,30.45,West,279,3.0,4.0,83,0.00,,,0.00,Wunderground v.1.15,2013-01-18 05:55:00,
2013-01-17 23:59:00,10.4,6.3,30.45,West,278,3.0,3.0,83,0.00,,,0.00,Wunderground v.1.15,2013-01-18 05:59:00,